2013 Spa Girl Triathlon Results

[ Tri ] [ Unofficial Tri ]
2013 Spa Girl Triathlon Results
Tri
Overall Swim T1 Bike
(10m)
T1 Run
(2m)
AG
Pos
Overall
Pos
Name Race No Finish
Time
AG
Pos
Overall
Pos
Time AG
Pos
Overall
Pos
Time AG
Pos
Overall
Pos
Time Pace AG
Pos
Overall
Pos
Time AG
Pos
Overall
Pos
Time Pace
Overall
1 3 Glenda ADAMS 116 56:06 3 282 10:46 2 5 01:02 1 1 28:31 21.0 m/hr 1 11 01:01 1 1 14:44 6:08 min/m
2 4 Shannon CROWE 64 01:01:27 2 216 10:29 1 4 01:00 2 4 32:40 18.4 m/hr 2 31 01:11 2 3 16:04 6:41 min/m
3 5 Shayna UNDERWOOD 14 01:02:39 1 3 08:33 3 166 02:13 3 13 34:33 17.4 m/hr 3 32 01:11 3 4 16:06 6:42 min/m
Masters
1 13 Kathleen SCHARCHBURG 91 01:05:17 1 200 10:24 1 1 00:52 1 5 32:49 18.3 m/hr 1 25 01:07 2 120 20:02 8:20 min/m
Ages 19 and Under
1 36 Megan BAREIS 36 01:08:42 6 269 10:41 2 21 01:17 2 61 37:29 16.0 m/hr 1 37 01:13 1 26 18:01 7:30 min/m
2 39 Lauren WALKER 555 01:08:52 1 6 08:38 4 174 02:15 1 59 37:18 16.1 m/hr 4 110 01:37 3 67 19:02 7:55 min/m
3 91 Taylor WALSH 15 01:13:14 5 209 10:27 1 6 01:03 3 115 39:06 15.3 m/hr 3 105 01:36 5 178 21:00 8:45 min/m
4 168 Jaylynn WIMBERLY 642 01:18:00 3 104 09:56               5 115 01:39 2 31 18:04 7:31 min/m
5 189 Caitlin LEACH 183 01:19:15 2 32 09:10 6 245 02:34 4 319 44:09 13.6 m/hr 2 47 01:15 8 250 22:05 9:12 min/m
6 324 Kennedy WALSH 20 01:25:59 11 386 11:23 5 217 02:24 5 365 45:41 13.1 m/hr 8 291 02:12 9 392 24:16 10:07 min/m
7 346 Diana JONES 52 01:26:48 9 362 11:14 7 282 02:45 8 503 50:39 11.8 m/hr 6 219 01:58 4 130 20:11 8:24 min/m
8 532 Yazmin CORONADO 798 01:36:38 4 194 10:22               7 248 02:03 13 658 31:38 13:11 min/m
9 539 Katie WEST 621 01:37:25 10 384 11:21 3 56 01:36 10 630 59:26 10.1 m/hr 10 507 03:11 7 230 21:49 9:05 min/m
10 599 Alexis FITZGERALD 733 01:41:53 12 490 11:58 10 650 06:57 7 496 50:13 11.9 m/hr 15 669 05:26 10 557 27:17 11:22 min/m
11 657 Elisabeth JOHNSON 822 01:49:01 7 296 10:49 13 670 08:34 12 671 01:04:51 9.3 m/hr 11 537 03:21 6 199 21:24 8:55 min/m
12 671 Katelyn SIMPSON 12 01:51:42 13 560 12:37 8 541 04:18 9 622 58:36 10.2 m/hr 14 662 05:11 12 646 30:57 12:53 min/m
13 682 Shelby UNDERWOOD 35 01:54:54 14 650 13:55 9 556 04:26 11 666 01:03:59 9.4 m/hr 12 607 04:01 11 593 28:31 11:53 min/m
14 703 Helen WILSON 484 02:02:54 8 359 11:12 11 652 07:06 6 395 46:33 12.9 m/hr 13 660 05:07 15 713 52:53 22:02 min/m
15 712 Landry LUEBBERT 635 02:17:48 15 691 17:12 12 664 07:54 13 687 01:18:29 7.6 m/hr 9 361 02:28 14 659 31:43 13:13 min/m
Ages 20 - 24
1 10 Eriel SWANSON 33 01:04:45 5 75 09:39 1 3 01:00 1 41 36:34 16.4 m/hr 1 3 00:49 1 7 16:41 6:57 min/m
2 114 Ashley LEITA 350 01:14:51 9 393 11:24 3 63 01:38 2 51 36:54 16.3 m/hr 4 214 01:57 9 304 22:55 9:33 min/m
3 119 Kelsey (MCCARTY) JACK 115 01:15:08 1 11 08:48 9 467 03:42 3 208 41:46 14.4 m/hr 10 468 02:56 3 22 17:53 7:27 min/m
4 120 Annemarie O'SHEAA 203 01:15:09 2 19 08:57 8 462 03:40 4 212 41:51 14.3 m/hr 8 447 02:50 2 21 17:48 7:25 min/m
5 199 Katie FOSTER 80 01:19:48 3 27 09:08 4 246 02:34 10 352 45:11 13.3 m/hr 3 100 01:36 5 191 21:16 8:52 min/m
6 257 Allison BIEDENHARN 42 01:22:42 12 548 12:30 5 335 02:59 5 225 42:11 14.2 m/hr 5 294 02:13 8 295 22:48 9:30 min/m
7 266 WELCH 939 01:23:09 8 351 11:09 2 57 01:36 7 286 43:28 13.8 m/hr 2 66 01:24 12 464 25:29 10:37 min/m
8 271 Sarah CLOUD 27 01:23:21 10 525 12:18 11 550 04:22 6 256 42:48 14.0 m/hr 6 302 02:15 6 211 21:37 9:00 min/m
9 292 Ashley FRYE 659 01:24:04 6 107 09:56 7 420 03:24 8 327 44:21 13.5 m/hr 7 354 02:26 10 363 23:55 9:58 min/m
10 323 Callie KUHASZ 719 01:25:53 7 114 10:00 13 618 05:27 9 350 45:03 13.3 m/hr 12 579 03:41 7 218 21:40 9:01 min/m
11 364 UNKNOWN 778 01:27:28 13 616 13:19 10 478 03:45 11 376 46:09 13.0 m/hr 11 543 03:24 4 166 20:49 8:40 min/m
12 514 Elizabeth Ashley BAYS 124 01:35:12 4 65 09:34 12 591 04:50 12 561 53:35 11.2 m/hr 9 463 02:55 11 393 24:16 10:07 min/m
13 660 Megan ADAMS 96 01:49:36 11 537 12:25 6 384 03:15 13 610 57:14 10.5 m/hr 13 684 06:55 13 629 29:45 12:24 min/m
Ages 25 - 29
1 30 Summer NORMAN 842 01:08:33 1 7 08:38 1 10 01:06 4 99 38:37 15.5 m/hr 1 10 01:00 7 76 19:10 7:59 min/m
2 37 Lynn GUION 818 01:08:50 4 25 09:05 4 82 01:46 3 68 37:45 15.9 m/hr 4 52 01:17 4 59 18:55 7:53 min/m
3 47 Cecilia MORALES 440 01:10:35 5 77 09:40 8 161 02:11 6 118 39:13 15.3 m/hr 5 67 01:25 1 30 18:04 7:31 min/m
4 61 Clena ABUAN 250 01:11:25 6 90 09:49 23 422 03:24 2 53 37:03 16.2 m/hr 22 404 02:37 2 45 18:29 7:42 min/m
5 69 Jenna HAUGHT 341 01:11:54 2 18 08:57 21 374 03:11 8 130 39:31 15.2 m/hr 2 29 01:10 6 70 19:03 7:56 min/m
6 84 Lacey ALBERS 41 01:12:48 35 536 12:24 5 84 01:47 1 52 36:55 16.2 m/hr 11 168 01:49 11 112 19:51 8:16 min/m
7 88 Taylor HOLMES 171 01:13:05 18 230 10:33 12 249 02:36 7 129 39:31 15.2 m/hr 7 119 01:40 3 52 18:43 7:48 min/m
8 107 Whitney WATTS 865 01:14:13 12 175 10:18 10 216 02:24 5 116 39:06 15.3 m/hr 19 309 02:16 12 126 20:07 8:23 min/m
9 177 Lauren FENDER 48 01:18:21 40 612 13:16 2 53 01:33 10 155 40:03 15.0 m/hr 6 102 01:36 15 231 21:51 9:06 min/m
10 181 Anna HESSONG 588 01:18:37 10 150 10:10 17 301 02:51 21 356 45:18 13.2 m/hr 3 48 01:16 5 66 19:01 7:55 min/m
11 202 Samantha JOYCE 420 01:19:57 15 212 10:28 22 376 03:12 9 135 39:36 15.1 m/hr 33 604 03:58 18 291 22:40 9:27 min/m
12 218 Savannah MENDOZA 638 01:20:51 14 195 10:22 11 243 02:32 11 203 41:42 14.4 m/hr 25 435 02:46 20 338 23:27 9:46 min/m
13 221 Stephanie HUPPERT 333 01:21:10 28 349 11:08 15 287 02:45 22 358 45:25 13.2 m/hr 14 222 01:59 10 110 19:50 8:16 min/m
14 236 Jasmin DEAN 629 01:21:44 8 115 10:00 16 295 02:49 20 345 44:58 13.3 m/hr 29 489 03:04 14 171 20:52 8:41 min/m
15 261 Afton MEADE 434 01:22:49 11 170 10:17 6 89 01:49 13 276 43:11 13.9 m/hr 32 577 03:39 21 361 23:51 9:56 min/m
16 283 Melanie WESTER 22 01:23:41 13 184 10:20 14 279 02:44 18 315 44:05 13.6 m/hr 15 224 01:59 23 411 24:31 10:13 min/m
17 287 Allison GRIEST 274 01:23:45 20 257 10:39 29 471 03:43 14 277 43:12 13.9 m/hr 31 524 03:15 19 303 22:54 9:32 min/m
18 297 Kelsea BARADA 108 01:24:25 38 572 12:42 7 154 02:09 12 240 42:26 14.1 m/hr 36 650 04:49 17 262 22:17 9:17 min/m
19 305 Meghann MCCRACKEN 102 01:24:47 26 337 11:04 9 194 02:20 16 288 43:35 13.8 m/hr 26 441 02:47 24 435 24:59 10:24 min/m
20 352 Katie HALEY 50 01:27:02 9 135 10:06 24 435 03:29 26 441 48:06 12.5 m/hr 30 493 03:05 16 259 22:14 9:15 min/m
21 415 Alex MILLER 667 01:29:24 25 336 11:04 34 529 04:09 15 282 43:21 13.8 m/hr 16 245 02:03 32 601 28:45 11:59 min/m
22 416 Angela HOUSTON 419 01:29:25 16 219 10:30 13 253 02:36 23 418 47:09 12.7 m/hr 13 211 01:57 29 553 27:11 11:19 min/m
23 452 Patricia STAFFORD 456 01:31:48 3 22 08:58 37 614 05:23 32 604 56:24 10.6 m/hr 10 145 01:45 8 82 19:16 8:01 min/m
24 506 Stephanie LANGOLF 100 01:34:43 34 451 11:43 20 356 03:05 24 419 47:10 12.7 m/hr 35 635 04:24 31 584 28:19 11:48 min/m
25 516 Yvette NANDIN 441 01:35:28 21 280 10:46 25 437 03:30 30 569 54:15 11.1 m/hr 24 425 02:43 22 386 24:13 10:05 min/m
26 527 Virginia POEPSEL 448 01:36:12 39 605 13:07 27 459 03:39 17 304 43:52 13.7 m/hr 34 605 03:58 35 656 31:34 13:09 min/m
27 553 Sarah PASCUAL 845 01:38:22 30 364 11:14 30 494 03:54 31 586 55:13 10.9 m/hr 20 334 02:22 26 474 25:38 10:41 min/m
28 558 Miree EDMAN 153 01:38:34 27 342 11:06 36 584 04:45 27 446 48:12 12.4 m/hr 39 691 07:58 28 524 26:32 11:03 min/m
29 561 Emily TATUM 616 01:38:39 23 292 10:48 39 654 07:09 29 549 53:08 11.3 m/hr 38 683 06:44 13 164 20:48 8:40 min/m
30 569 Tara SPEETZEN 323 01:39:02 17 229 10:33 26 444 03:33 28 539 52:21 11.5 m/hr 27 455 02:53 34 624 29:40 12:21 min/m
31 570 Bridget LIGHTHALL 593 01:39:03 33 441 11:39 35 575 04:38 19 343 44:57 13.3 m/hr 40 700 11:15 27 523 26:32 11:03 min/m
32 583 Mercedes GARZA-RAMOS 486 01:40:10 19 246 10:36 40 660 07:30 25 435 47:52 12.5 m/hr 9 125 01:42 36 670 32:28 13:31 min/m
33 629 Addie WIELAND 359 01:45:19 22 290 10:48 28 461 03:40 33 631 59:26 10.1 m/hr 18 300 02:14 33 608 29:08 12:08 min/m
34 633 Laurie TAXIARCHOU 107 01:45:53 7 94 09:50 3 76 01:42 39 683 01:13:02 8.2 m/hr 8 121 01:41 9 95 19:35 8:09 min/m
35 642 Alison CARNAHAN 135 01:47:21 32 390 11:24 19 341 03:00 37 657 01:02:58 9.5 m/hr 37 655 04:54 25 439 25:03 10:26 min/m
36 668 Megan AGUILAR 653 01:51:06 31 368 11:15 18 311 02:52 34 639 59:58 10.0 m/hr 17 254 02:04 38 686 34:55 14:33 min/m
37 675 Kathryn TRUJILLO 237 01:53:21 36 558 12:35 32 521 04:07 36 644 01:01:05 9.8 m/hr 23 412 02:39 37 674 32:53 13:42 min/m
38 686 Liz ROBINSON 605 01:55:47 37 561 12:37 33 525 04:07 35 640 01:00:11 10.0 m/hr 28 479 03:02 40 696 35:48 14:55 min/m
39 701 Brooke UPCHURCH 551 02:02:34 24 322 10:58 38 633 05:52 40 686 01:16:02 7.9 m/hr 12 179 01:51 30 570 27:49 11:35 min/m
40 706 Rachel WEGNER 620 02:04:54 29 358 11:12 31 502 03:59 38 681 01:11:33 8.4 m/hr 21 363 02:28 39 693 35:40 14:51 min/m
Ages 30 - 34
1 6 Julie WALL 863 01:03:41 2 4 08:34 17 109 01:54 3 22 35:11 17.0 m/hr 55 301 02:14 1 2 15:44 6:33 min/m
2 7 Crystal CANTU 113 01:03:44 42 198 10:23 3 14 01:11 1 7 32:57 18.2 m/hr 4 19 01:04 8 32 18:05 7:32 min/m
3 8 Tania HUMMEL 820 01:03:56 1 2 08:10 4 23 01:19 5 36 36:16 16.5 m/hr 5 30 01:11 3 10 16:58 7:04 min/m
4 12 Julia GRAY 159 01:05:01 9 46 09:22 8 46 01:28 2 12 34:20 17.5 m/hr 13 86 01:31 12 40 18:18 7:37 min/m
5 23 Leticia ALANIZ 365 01:06:50 4 20 08:57 16 97 01:51 6 38 36:25 16.5 m/hr 15 94 01:33 7 27 18:02 7:30 min/m
6 29 Carrie SALGE 607 01:08:17 7 28 09:08 7 38 01:24 4 32 36:04 16.6 m/hr 56 307 02:15 21 89 19:24 8:05 min/m
7 44 Sarah SHRADER 853 01:09:42 68 374 11:18 15 94 01:50 8 60 37:25 16.0 m/hr 43 242 02:02 4 15 17:05 7:07 min/m
8 51 Lori MALARA 482 01:10:41 25 122 10:02 5 33 01:22 28 175 40:42 14.7 m/hr 10 69 01:25 5 16 17:07 7:08 min/m
9 54 Marika SCRIVNER 31 01:10:59 57 298 10:50 18 119 01:58 7 58 37:18 16.1 m/hr 7 46 01:15 23 97 19:37 8:10 min/m
10 55 Nichole WITT 248 01:11:00 6 23 09:02 10 51 01:30 33 205 41:45 14.4 m/hr 23 149 01:46 2 9 16:55 7:03 min/m
11 62 Summer MANCHESTER 429 01:11:33 21 99 09:53 2 11 01:06 27 170 40:34 14.8 m/hr 3 12 01:02 17 62 18:56 7:53 min/m
12 63 Melissa JOHNSON 823 01:11:37 17 83 09:47 1 2 01:00 24 166 40:23 14.9 m/hr 9 53 01:17 19 74 19:08 7:58 min/m
13 68 Corey SPENCER 858 01:11:53 14 67 09:34 48 271 02:41 17 119 39:14 15.3 m/hr 30 184 01:53 14 46 18:30 7:42 min/m
14 70 Jennifer TUSTISON 463 01:11:58 46 215 10:29 6 37 01:23 13 100 38:38 15.5 m/hr 2 9 00:59 29 142 20:28 8:31 min/m
15 72 Nicole NUCKOLS 110 01:12:00 27 127 10:03 81 454 03:37 11 86 38:18 15.7 m/hr 29 174 01:50 10 36 18:10 7:34 min/m
16 85 Barb MORCOMBE 536 01:12:48 32 156 10:14 24 149 02:07 29 187 41:03 14.6 m/hr 6 45 01:15 9 34 18:07 7:33 min/m
17 94 Sarah GAEKE 260 01:13:17 20 91 09:49 79 450 03:35 15 111 38:54 15.4 m/hr 45 257 02:04 16 57 18:52 7:51 min/m
18 96 Riana MILLINGTON 194 01:13:18 10 47 09:23 30 181 02:17 37 220 42:02 14.3 m/hr 52 275 02:07 6 17 17:27 7:16 min/m
19 106 Kathryn SHULER 114 01:14:04 36 172 10:17 13 85 01:47 12 93 38:28 15.6 m/hr 35 210 01:57 40 207 21:34 8:59 min/m
20 108 Julie HOUSE 263 01:14:27 18 86 09:48 65 383 03:15 16 117 39:07 15.3 m/hr 82 501 03:08 18 73 19:08 7:58 min/m
21 113 Bryce SPEER 281 01:14:46 33 160 10:15 21 126 02:00 25 167 40:26 14.8 m/hr 48 263 02:05 25 117 19:58 8:19 min/m
22 128 Faith PENA 103 01:15:36 61 311 10:54 19 124 02:00 10 73 38:05 15.8 m/hr 14 87 01:31 59 312 23:05 9:37 min/m
23 133 Emily FRANDSEN 406 01:15:53 24 121 10:01 46 264 02:40 14 110 38:52 15.4 m/hr 39 234 02:00 53 263 22:18 9:17 min/m
24 134 Erin GRAHAM 49 01:15:55 81 440 11:39 33 192 02:19 21 145 39:46 15.1 m/hr 27 160 01:48 27 136 20:21 8:29 min/m
25 138 Marie M. JACKSON 174 01:16:01 40 187 10:20 67 390 03:17 26 169 40:32 14.8 m/hr 1 8 00:58 32 170 20:51 8:41 min/m
26 140 Colleen CRABTREE 802 01:16:18 3 17 08:56 42 241 02:32 52 303 43:51 13.7 m/hr 61 369 02:29 13 44 18:29 7:42 min/m
27 147 Shelley SRP 614 01:16:52 37 174 10:17 23 133 02:02 43 248 42:39 14.1 m/hr 8 51 01:16 31 153 20:36 8:35 min/m
28 154 Erica FARMER 511 01:17:20 41 191 10:22 36 204 02:22 18 125 39:26 15.2 m/hr 25 158 01:48 65 332 23:20 9:43 min/m
29 155 Dorothy MURRAY 838 01:17:21 5 21 08:58 25 155 02:09 20 141 39:42 15.1 m/hr 85 515 03:13 61 327 23:17 9:42 min/m
30 160 Shakira CABRERA 381 01:17:32 11 52 09:26 9 49 01:29 46 268 42:58 14.0 m/hr 37 221 01:58 41 214 21:38 9:01 min/m
31 165 Jessica BROOKS 705 01:17:55 16 78 09:41 20 125 02:00 22 146 39:51 15.1 m/hr 81 490 03:04 62 329 23:18 9:42 min/m
32 182 Debbie ALLEN 1 01:18:51 118 672 14:37 50 297 02:50 9 66 37:38 15.9 m/hr 67 390 02:34 34 183 21:10 8:49 min/m
33 186 Diane PARKER 88 01:18:59 111 642 13:42 39 207 02:23 23 149 39:57 15.0 m/hr 17 108 01:37 37 192 21:18 8:52 min/m
34 191 Jana PINOLI 313 01:19:24 79 423 11:33 57 353 03:04 34 209 41:46 14.4 m/hr 22 148 01:46 36 187 21:14 8:50 min/m
35 193 Elizabeth CASIANO 383 01:19:26 92 499 12:03 68 402 03:21 45 263 42:54 14.0 m/hr 24 154 01:47 20 86 19:19 8:03 min/m
36 196 Lindsey CHRISTENSEN 574 01:19:43 50 245 10:36 14 87 01:48 32 204 41:43 14.4 m/hr 57 311 02:16 63 330 23:18 9:42 min/m
37 203 Samantha SUHLER 548 01:20:06 44 208 10:27 45 262 02:39 40 239 42:26 14.1 m/hr 59 323 02:19 52 258 22:13 9:15 min/m
38 207 Rachel VERME 242 01:20:16 8 34 09:12 44 255 02:37 57 382 46:23 12.9 m/hr 49 268 02:06 24 116 19:57 8:18 min/m
39 208 Stacy COMBS 387 01:20:18 28 143 10:07 37 205 02:23 58 383 46:23 12.9 m/hr 26 159 01:48 22 96 19:35 8:09 min/m
40 219 Lauren BOHNSTEDT 953 01:21:05 19 87 09:48 28 177 02:16 41 242 42:27 14.1 m/hr 84 512 03:13 64 331 23:20 9:43 min/m
41 228 Amanda LOVE 187 01:21:27 12 58 09:30 52 299 02:50 67 434 47:52 12.5 m/hr 64 383 02:33 15 50 18:40 7:46 min/m
42 234 Sandra CICHON 797 01:21:40 96 526 12:19 53 304 02:51 30 191 41:12 14.6 m/hr 71 409 02:38 58 286 22:38 9:26 min/m
43 237 Danielle MUSGROVE 489 01:21:49 45 211 10:28 26 156 02:09 31 195 41:19 14.5 m/hr 68 396 02:36 83 449 25:14 10:31 min/m
44 239 Gloria LUNA 529 01:21:50 63 314 10:55 80 452 03:36 35 211 41:51 14.3 m/hr 21 140 01:44 68 357 23:41 9:52 min/m
45 241 Jodi PARKER 204 01:21:51 15 74 09:38 38 206 02:23 51 299 43:46 13.7 m/hr 65 388 02:34 66 340 23:29 9:47 min/m
46 245 Michelle GRIMES 261 01:22:06 52 272 10:42 55 342 03:01 42 247 42:33 14.1 m/hr 54 289 02:11 67 352 23:37 9:50 min/m
47 251 Lexi BOWDEN 257 01:22:30 35 163 10:16 29 180 02:17 63 411 47:04 12.7 m/hr 12 80 01:29 38 195 21:23 8:54 min/m
48 263 Meredith MAY 830 01:22:59 31 152 10:11 34 197 02:20 19 139 39:40 15.1 m/hr 88 525 03:16 99 561 27:29 11:27 min/m
49 264 Jennifer HOPP 418 01:23:01 80 427 11:34 54 323 02:55 48 278 43:13 13.9 m/hr 72 418 02:41 57 285 22:37 9:25 min/m
50 270 Jennifer KRAUSE 305 01:23:20 47 227 10:32 91 531 04:11 47 269 43:00 14.0 m/hr 99 595 03:54 44 221 21:41 9:02 min/m
51 274 Ruth JOHNSON 661 01:23:25 23 117 10:00 47 270 02:41 36 214 41:56 14.3 m/hr 69 398 02:37 88 500 26:08 10:53 min/m
52 281 Vivian DAVILA 147 01:23:37 101 586 12:52 69 411 03:22 50 297 43:45 13.7 m/hr 60 340 02:23 35 186 21:13 8:50 min/m
53 300 Kari YOKLEY 470 01:24:36 82 443 11:41 35 199 02:21 53 311 44:03 13.6 m/hr 34 205 01:56 76 412 24:34 10:14 min/m
54 309 Stephanie FRAYRE 513 01:24:53 70 395 11:25 78 443 03:33 39 229 42:15 14.2 m/hr 97 571 03:36 70 370 24:03 10:01 min/m
55 316 Kari DURONIO 805 01:25:16 39 178 10:19 74 428 03:28 60 392 46:31 12.9 m/hr 86 518 03:14 45 222 21:41 9:02 min/m
56 321 Jacqueline HALEY 163 01:25:40 22 110 09:59 71 415 03:23 54 334 44:40 13.4 m/hr 74 443 02:48 77 423 24:49 10:20 min/m
57 328 Felicia SANTIAGO 544 01:26:03 34 162 10:15 86 505 04:00 44 249 42:41 14.1 m/hr 76 453 02:53 90 508 26:13 10:55 min/m
58 334 Sarah PRETZSCH 279 01:26:14 73 403 11:27 66 388 03:17 66 430 47:40 12.6 m/hr 47 261 02:05 46 224 21:44 9:03 min/m
59 344 Mavis HECKER 415 01:26:44 29 145 10:08 51 298 02:50 49 279 43:14 13.9 m/hr 96 570 03:35 97 543 26:56 11:13 min/m
60 357 Aryn Kylie RILEY 25 01:27:10 90 488 11:57 49 292 02:48 38 221 42:04 14.3 m/hr 100 596 03:54 91 516 26:25 11:00 min/m
61 362 Meghann MONSANTO 668 01:27:23 48 235 10:34 76 432 03:28 64 420 47:14 12.7 m/hr 46 258 02:05 69 367 24:00 10:00 min/m
62 363 Victoria DUPLANTIS 686 01:27:27 43 199 10:24 64 373 03:10 61 401 46:42 12.8 m/hr 79 473 02:59 73 381 24:10 10:04 min/m
63 370 Adrienne WELLS 468 01:27:40 66 356 11:12 90 524 04:07 73 484 49:37 12.1 m/hr 58 318 02:18 28 139 20:24 8:30 min/m
64 372 Stephanie ANDREW 362 01:27:57 56 294 10:48 41 235 02:30 82 515 50:56 11.8 m/hr 20 128 01:43 48 242 21:59 9:09 min/m
65 394 Kylene CARSE 136 01:28:32 13 62 09:32 31 183 02:17 59 384 46:25 12.9 m/hr 110 664 05:16 78 436 25:00 10:25 min/m
66 396 Roxanne FUENTES 514 01:28:44 26 126 10:03 88 509 04:03 70 470 49:05 12.2 m/hr 91 540 03:21 51 254 22:09 9:14 min/m
67 401 Adrien LOEHRING 829 01:28:54 38 177 10:18 61 363 03:07 81 511 50:52 11.8 m/hr 51 272 02:06 54 273 22:29 9:22 min/m
68 411 Rasheeda JAMES 718 01:29:07 88 486 11:56 93 561 04:30 69 468 48:59 12.2 m/hr 42 238 02:02 43 216 21:38 9:01 min/m
69 439 Abigail NORMAN 199 01:31:00 51 260 10:40               77 462 02:55 72 377 24:07 10:03 min/m
70 440 Pamela WINNITOY 361 01:31:04 86 460 11:47 87 508 04:03 72 478 49:25 12.1 m/hr 103 617 04:09 42 215 21:38 9:01 min/m
71 442 Alison NORMAN 200 01:31:10 58 301 10:50 109 641 06:13 65 424 47:26 12.6 m/hr 66 389 02:34 71 374 24:06 10:02 min/m
72 444 Maria NOLASCO 721 01:31:29 59 304 10:51 43 247 02:35 92 571 54:19 11.0 m/hr 32 202 01:55 47 229 21:47 9:04 min/m
73 463 Jennie SIMISON 335 01:32:24 72 402 11:26 84 495 03:55 62 404 46:48 12.8 m/hr 19 123 01:41 107 594 28:33 11:53 min/m
74 476 April PATTERSON 206 01:33:10 89 487 11:56 117 674 09:13 55 338 44:46 13.4 m/hr 80 474 03:00 74 383 24:12 10:05 min/m
75 494 Sarah HOLUB 716 01:34:19             86 541 52:23 11.5 m/hr 101 598 03:55 50 251 22:08 9:13 min/m
76 503 Virginia FRANCO 405 01:34:35 78 419 11:32 72 417 03:23 56 364 45:41 13.1 m/hr 113 672 05:32 106 588 28:24 11:50 min/m
77 507 Susan MCCLARY 765 01:34:47 64 319 10:56 100 610 05:15 80 507 50:44 11.8 m/hr 73 433 02:45 79 441 25:05 10:27 min/m
78 510 Heidi JONES 5 01:34:57 109 630 13:30 32 191 02:19 94 591 55:27 10.8 m/hr 89 533 03:20 26 135 20:19 8:28 min/m
79 511 Elizabeth THOMPSON 640 01:35:01 87 463 11:48 85 503 03:59 90 568 54:14 11.1 m/hr 95 562 03:33 39 202 21:25 8:55 min/m
80 517 Mary VOORHIES 553 01:35:34 105 597 13:00 63 365 03:08 76 489 49:46 12.1 m/hr 31 188 01:53 101 567 27:44 11:33 min/m
81 518 Kimberly MOSES 196 01:35:42 102 587 12:52 99 604 05:08 77 491 49:50 12.0 m/hr 90 535 03:20 75 408 24:30 10:12 min/m
82 523 Elizabeth SOLIZ 671 01:35:56 93 513 12:10 110 647 06:31 68 436 47:57 12.5 m/hr 118 692 08:08 33 182 21:07 8:48 min/m
83 530 Lenna CAMPBELL 382 01:36:32 54 276 10:44 92 538 04:18 78 497 50:21 11.9 m/hr 114 675 05:38 86 462 25:29 10:37 min/m
84 531 Victoria LEIJA 693 01:36:36 49 244 10:36 11 74 01:42 109 656 01:02:12 9.6 m/hr 16 99 01:36 30 143 20:28 8:32 min/m
85 535 Lori HENDRICKS 254 01:36:49 85 453 11:44 116 673 08:56 79 501 50:36 11.9 m/hr 94 554 03:30 49 246 22:02 9:10 min/m
86 537 Cassie ZIMMERMANN 471 01:37:03 108 628 13:27 75 429 03:28 99 611 57:33 10.4 m/hr 104 621 04:15 11 39 18:18 7:37 min/m
87 548 Karen NELSON 264 01:38:04 71 397 11:26 56 344 03:02 83 517 50:57 11.8 m/hr 70 405 02:38 111 633 30:00 12:30 min/m
88 554 Shannon RARIDEN 542 01:38:26 97 532 12:21 97 588 04:48 71 474 49:15 12.2 m/hr 62 372 02:30 110 620 29:30 12:17 min/m
89 557 Jennifer DEPEW 730 01:38:34 98 534 12:24 82 456 03:37 93 588 55:18 10.8 m/hr 50 269 02:06 81 444 25:06 10:27 min/m
90 560 Jeanne PETERSON 60 01:38:37 117 669 14:32 40 220 02:26 87 551 53:10 11.3 m/hr 40 235 02:01 92 518 26:26 11:01 min/m
91 562 Barbara BOYD 378 01:38:40 99 549 12:30               112 668 05:25 80 443 25:05 10:27 min/m
92 564 Tiffany TILMON 460 01:38:43 67 372 11:18 95 576 04:38 91 570 54:16 11.1 m/hr 38 230 02:00 93 521 26:30 11:02 min/m
93 576 Kelley HARTLEY 82 01:39:32 104 591 12:57 60 358 03:05 84 525 51:17 11.7 m/hr 92 545 03:26 108 600 28:44 11:58 min/m
94 582 Lana SIMMONS 32 01:40:06 69 385 11:23 103 623 05:37 88 555 53:18 11.3 m/hr 41 236 02:01 102 568 27:44 11:33 min/m
95 586 Kristy WILSON 247 01:40:26 95 515 12:13 62 364 03:08 74 486 49:39 12.1 m/hr 87 519 03:14 115 666 32:11 13:24 min/m
96 597 Maria REEVES 40 01:41:15 107 617 13:20 59 357 03:05 85 527 51:18 11.7 m/hr 33 204 01:55 114 655 31:34 13:09 min/m
97 600 Summer LYONS 351 01:41:56 76 411 11:30                     112 642 30:53 12:52 min/m
98 601 Rachel DIGGS 731 01:41:59 77 412 11:30 22 128 02:01 102 625 58:58 10.2 m/hr 36 218 01:58 100 563 27:30 11:27 min/m
99 609 Erika ARCHIE 786 01:42:45 84 452 11:43 98 594 04:55 108 655 01:02:05 9.7 m/hr 11 73 01:26 56 282 22:34 9:24 min/m
100 611 Andy SALAZAR-AGUIRRE 219 01:42:58 65 344 11:07 12 78 01:43 89 563 53:46 11.2 m/hr 28 169 01:49 119 682 34:32 14:23 min/m
101 615 Lajvonna TARLTON 615 01:43:24 83 448 11:43 77 442 03:33 110 659 01:03:06 9.5 m/hr 63 373 02:30 55 274 22:30 9:22 min/m
102 616 Danielle PRATKA 604 01:43:29 53 273 10:43 111 653 07:09               87 477 25:43 10:43 min/m
103 617 Angela KOUDELKA 181 01:43:33 60 306 10:53 101 612 05:17 96 600 55:57 10.7 m/hr 44 252 02:04 109 616 29:21 12:13 min/m
104 626 Laura FAIR 732 01:44:33 74 404 11:27 114 665 07:55 95 599 55:52 10.7 m/hr 102 606 03:59 84 451 25:18 10:32 min/m
105 640 Vivian FRIESENHAHN 408 01:47:09 114 654 13:58 83 483 03:48               117 679 34:11 14:14 min/m
106 646 Belinda NOVA 201 01:47:53 30 148 10:09 58 354 03:04 111 661 01:03:32 9.4 m/hr 105 630 04:21 94 534 26:45 11:08 min/m
107 649 Melissa REYES 710 01:48:01 62 313 10:55 105 626 05:42 105 641 01:00:14 10.0 m/hr 78 466 02:56 105 580 28:13 11:45 min/m
108 650 Erika MUNOZ 744 01:48:04 122 693 17:22 27 159 02:11 104 638 59:55 10.0 m/hr 18 114 01:39 96 541 26:55 11:13 min/m
109 653 Amber BEAHER 374 01:48:13 100 570 12:42 73 427 03:26 98 607 56:58 10.5 m/hr 75 451 02:51 116 667 32:14 13:25 min/m
110 655 Jessica ELKIN 298 01:48:30 91 493 12:00 112 655 07:10 100 618 58:15 10.3 m/hr 83 502 03:09 103 573 27:54 11:37 min/m
111 658 Desiree MARTINEZ 308 01:49:19 115 660 14:05 102 622 05:35 75 487 49:43 12.1 m/hr 111 666 05:24 118 681 34:29 14:22 min/m
112 665 Lauren DELOZIER 508 01:50:25 103 588 12:54 107 634 05:53 106 652 01:01:59 9.7 m/hr 106 637 04:27 82 447 25:11 10:29 min/m
113 666 Rhiannon BYRD 380 01:50:26 75 408 11:29 89 520 04:07 114 674 01:05:49 9.1 m/hr 53 284 02:10 95 536 26:48 11:10 min/m
114 667 Katherine THOMPSON 234 01:50:47 106 599 13:02 108 635 05:54 107 653 01:01:59 9.7 m/hr 107 641 04:29 85 455 25:20 10:33 min/m
115 669 Pamela CHALASANI 796 01:51:26 55 284 10:46 115 671 08:46 97 605 56:28 10.6 m/hr 117 688 07:11 104 579 28:13 11:45 min/m
116 676 Lorie MARTINEZ 637 01:53:30 116 661 14:08               115 680 06:28 60 317 23:09 9:38 min/m
117 677 Meghan JOHNSON 29 01:53:45 119 673 14:43 94 569 04:33 113 670 01:04:49 9.3 m/hr 93 549 03:27 89 505 26:10 10:54 min/m
118 692 Katie ROBERTS 318 01:59:42 94 514 12:11 96 582 04:44 103 634 59:43 10.0 m/hr 98 572 03:36 123 708 39:26 16:26 min/m
119 700 Robyn WHITE 751 02:02:23 112 648 13:51 113 662 07:39 112 667 01:04:11 9.3 m/hr 109 661 05:08 113 654 31:32 13:08 min/m
120 705 Tiffany LOPEZ 426 02:04:47 121 685 15:36 70 412 03:22 101 624 58:55 10.2 m/hr 119 699 11:12 120 694 35:40 14:51 min/m
121 707 Katie GOETZ 413 02:09:26 110 640 13:41 104 624 05:40 115 677 01:08:55 8.7 m/hr 108 647 04:45 122 698 36:22 15:09 min/m
122 709 April MARTIN 432 02:14:26 113 649 13:54 106 632 05:50 116 682 01:12:13 8.3 m/hr 116 682 06:44 121 695 35:44 14:53 min/m
123 714 Heather SIMMS 11 03:13:42 120 676 14:55                     98 548 27:03 11:16 min/m
Ages 35 - 39
1 9 Rita JONAS 625 01:04:29 4 16 08:55 5 45 01:26 2 3 32:18 18.6 m/hr 9 60 01:20 37 141 20:27 8:31 min/m
2 11 Sara UNDERWOOD 69 01:04:58 101 418 11:32 3 35 01:23 1 2 32:01 18.7 m/hr 2 18 01:04 13 63 18:56 7:53 min/m
3 17 Jennifer SMITH 857 01:05:47 23 97 09:52 24 120 01:59 3 6 32:57 18.2 m/hr 8 59 01:20 24 99 19:37 8:10 min/m
4 19 Ashley FALGOUST 401 01:06:18 47 179 10:19                     21 93 19:33 8:09 min/m
5 22 Anna KAISER 74 01:06:39             4 16 34:47 17.2 m/hr 5 54 01:17 8 42 18:21 7:38 min/m
6 24 Mandie SVATEK 860 01:07:00 80 316 10:56 4 42 01:26 13 50 36:53 16.3 m/hr 1 13 01:03 1 6 16:40 6:57 min/m
7 25 Ladeitra LEE 86 01:07:38 9 50 09:25 57 268 02:41 8 29 35:50 16.7 m/hr 23 111 01:39 6 28 18:02 7:30 min/m
8 27 Michelle LAFLURE 825 01:07:50 5 31 09:10 25 121 01:59 11 42 36:37 16.4 m/hr 57 264 02:05 4 24 17:58 7:29 min/m
9 46 Leticia JONES 521 01:10:33 6 35 09:13 10 62 01:37 34 131 39:31 15.2 m/hr 6 57 01:19 11 55 18:50 7:51 min/m
10 48 Amy MILLER 58 01:10:37 86 346 11:07 37 178 02:16 15 65 37:36 16.0 m/hr 51 241 02:02 3 19 17:33 7:19 min/m
11 50 Diana MONTGOMERY 353 01:10:39 44 166 10:16 124 547 04:20 12 43 36:38 16.4 m/hr 43 186 01:53 2 18 17:30 7:17 min/m
12 53 Dana QUARLES 450 01:10:56 27 118 10:01 19 103 01:52 9 34 36:11 16.6 m/hr 90 420 02:41 32 127 20:09 8:23 min/m
13 58 Amy PYLE 90 01:11:10 13 66 09:34 39 196 02:20 33 128 39:27 15.2 m/hr 4 36 01:12 10 47 18:35 7:44 min/m
14 59 Julie WILLIFORD 338 01:11:14 2 10 08:45 1 15 01:12 35 136 39:36 15.1 m/hr 19 96 01:33 31 123 20:06 8:22 min/m
15 60 Sarah POPE 208 01:11:15 45 169 10:17 12 70 01:41 25 92 38:26 15.6 m/hr 17 88 01:31 18 85 19:18 8:02 min/m
16 64 Shane HESLIN 51 01:11:40 68 274 10:44 7 54 01:33 21 85 38:18 15.7 m/hr 34 151 01:47 17 84 19:18 8:02 min/m
17 73 Chrissy FISCHER 630 01:12:01 20 92 09:50 9 60 01:36 18 76 38:11 15.7 m/hr 78 366 02:29 27 113 19:53 8:17 min/m
18 74 Dana FARRAR 37 01:12:03 96 383 11:21 20 105 01:53 10 40 36:33 16.4 m/hr 68 319 02:18 29 115 19:56 8:18 min/m
19 77 Natalie MILLER 57 01:12:13 103 430 11:35 26 131 02:02 5 24 35:34 16.9 m/hr 22 109 01:37 50 198 21:24 8:55 min/m
20 80 Megan GRAY 160 01:12:37 61 239 10:34 50 236 02:30 7 27 35:44 16.8 m/hr 36 155 01:47 64 243 21:59 9:09 min/m
21 83 Danae QUIJANO 211 01:12:47             64 266 42:56 14.0 m/hr 56 262 02:05 57 233 21:51 9:06 min/m
22 87 Crystal TOMLINSON 862 01:12:54 17 82 09:46 23 114 01:56 16 67 37:45 15.9 m/hr 39 165 01:48 52 212 21:37 9:00 min/m
23 95 Jessica BAILEY 255 01:13:17 26 109 09:58               74 349 02:25 43 157 20:42 8:37 min/m
24 97 Sandy NGUYEN 443 01:13:27 29 125 10:03 66 291 02:47 17 74 38:07 15.7 m/hr 76 353 02:26 30 121 20:03 8:21 min/m
25 103 Heidi ANHALT 339 01:13:35 35 142 10:07 16 79 01:44 38 147 39:52 15.0 m/hr 24 112 01:39 34 131 20:12 8:25 min/m
26 104 Rachel HOLTON 590 01:13:36 39 155 10:13 2 26 01:19 39 148 39:54 15.0 m/hr 20 104 01:36 40 147 20:31 8:33 min/m
27 105 Tracey LOWE 427 01:13:52 21 93 09:50 48 233 02:29 56 232 42:20 14.2 m/hr 3 34 01:12 5 25 17:59 7:29 min/m
28 109 Sara COLLIER 142 01:14:35 19 88 09:49 76 328 02:57 19 78 38:11 15.7 m/hr 106 485 03:02 42 150 20:34 8:34 min/m
29 116 Courtney FOSTER 878 01:14:59 38 154 10:13 33 168 02:13 22 88 38:20 15.6 m/hr 65 299 02:14 62 239 21:56 9:08 min/m
30 117 Natalie BOCK 293 01:15:01 63 256 10:39 41 203 02:22 31 113 38:58 15.4 m/hr 12 71 01:26 51 209 21:35 8:59 min/m
31 118 Nikki MAPLES 430 01:15:04 16 81 09:45 82 368 03:10 6 26 35:43 16.8 m/hr 80 376 02:31 94 362 23:53 9:57 min/m
32 121 Janine LORIO-VENSON 481 01:15:09 51 214 10:29 22 113 01:56 29 107 38:45 15.5 m/hr 63 288 02:10 56 228 21:47 9:04 min/m
33 132 Rachelle HAYDEL 168 01:15:50 95 378 11:20 47 230 02:29 36 143 39:42 15.1 m/hr 38 164 01:48 39 145 20:29 8:32 min/m
34 137 Janine STOTZ 230 01:16:00 10 55 09:27 8 59 01:36 41 158 40:12 14.9 m/hr 29 133 01:43 83 308 22:59 9:34 min/m
35 141 Jeanette ANDERSON 119 01:16:27 85 333 11:01 14 75 01:42 20 84 38:17 15.7 m/hr 130 576 03:39 55 225 21:45 9:04 min/m
36 146 Marcia LOCKE 307 01:16:49 99 399 11:26 118 514 04:05 24 91 38:25 15.6 m/hr 104 481 03:02 26 109 19:49 8:15 min/m
37 148 Eve SMILEY 92 01:16:59 88 348 11:08 98 431 03:28 23 90 38:23 15.6 m/hr 145 642 04:36 19 87 19:22 8:04 min/m
38 152 Carrie HANIS 165 01:17:15 31 129 10:04 68 294 02:48 32 127 39:27 15.2 m/hr 66 303 02:15 77 289 22:39 9:26 min/m
39 156 Nicole MORRIS 59 01:17:25 18 85 09:48 111 474 03:44 30 112 38:57 15.4 m/hr 127 565 03:34 49 194 21:20 8:53 min/m
40 158 Erica NORIEGA 875 01:17:28 14 68 09:34 38 179 02:16 49 184 40:57 14.7 m/hr 40 166 01:48 81 301 22:51 9:31 min/m
41 162 Annie ELMENDORF 577 01:17:47 15 73 09:37 53 251 02:36 14 57 37:11 16.1 m/hr 154 689 07:34 44 161 20:47 8:39 min/m
42 163 Amy ROBERTS 214 01:17:50 24 98 09:52 92 398 03:20 62 254 42:46 14.0 m/hr 87 399 02:37 15 79 19:12 8:00 min/m
43 167 Adrienne GASSER 582 01:17:57 22 95 09:51 112 476 03:44 40 152 40:02 15.0 m/hr 146 643 04:40 23 98 19:37 8:10 min/m
44 171 J SWAN 748 01:18:07 125 528 12:20 71 306 02:51 26 97 38:31 15.6 m/hr 30 137 01:43 76 287 22:39 9:26 min/m
45 173 Nicole CALLAWAY 133 01:18:14 91 363 11:14 46 225 02:27 47 178 40:47 14.7 m/hr 128 566 03:34 33 128 20:09 8:24 min/m
46 176 Jenni Har HARVEY CRIDER 414 01:18:17             43 171 40:34 14.8 m/hr 86 395 02:36 74 281 22:34 9:24 min/m
47 179 Hannah HEDGPETH 23 01:18:34 112 468 11:49 36 175 02:16 37 144 39:44 15.1 m/hr 28 130 01:43 84 309 23:00 9:35 min/m
48 185 Janelle URIOSTE 777 01:18:55 3 12 08:50 18 101 01:52 54 217 42:00 14.3 m/hr 46 199 01:54 102 394 24:17 10:07 min/m
49 190 Rebecca TAYLOR 13 01:19:19 134 598 13:02               35 152 01:47 68 249 22:05 9:12 min/m
50 194 Karina K ALLEN 288 01:19:30 50 213 10:28 56 267 02:41 46 176 40:42 14.7 m/hr 71 341 02:23 89 326 23:15 9:41 min/m
51 201 Dana MCKENNA 95 01:19:55             51 197 41:22 14.5 m/hr 112 521 03:15 25 101 19:41 8:12 min/m
52 206 Bonnie CUNNINGHAM 575 01:20:15 7 40 09:17 83 369 03:10 100 443 48:09 12.5 m/hr 14 74 01:26 7 37 18:11 7:34 min/m
53 209 Elizabeth ETHEREDGE 400 01:20:18 8 49 09:24 40 201 02:21 59 244 42:30 14.1 m/hr 54 253 02:04 95 364 23:56 9:58 min/m
54 214 Estella MEDINA 533 01:20:45 77 305 10:52 101 439 03:32 28 106 38:44 15.5 m/hr 118 539 03:21 101 390 24:15 10:06 min/m
55 216 Libbie HILL 417 01:20:47 78 310 10:54 62 278 02:43 76 324 44:14 13.6 m/hr 84 392 02:35 35 134 20:19 8:28 min/m
56 220 Shonnery PETTIT 356 01:21:08 57 228 10:32 29 153 02:09 66 271 43:03 13.9 m/hr 120 546 03:26 63 240 21:56 9:08 min/m
57 227 Sunny COWDEN 799 01:21:20 69 277 10:44 35 172 02:15 68 289 43:37 13.8 m/hr 92 432 02:45 61 238 21:56 9:08 min/m
58 230 Sara PATTERSON 205 01:21:28 54 222 10:31 78 349 03:02 77 325 44:14 13.6 m/hr 98 449 02:51 45 165 20:48 8:40 min/m
59 231 Liza VATHY 241 01:21:28 34 140 10:06 28 144 02:06 48 179 40:49 14.7 m/hr 52 247 02:03 127 515 26:21 10:59 min/m
60 232 Salli COBB 140 01:21:33 100 409 11:29 11 69 01:41 70 296 43:44 13.7 m/hr 37 157 01:48 78 297 22:49 9:30 min/m
61 233 Gina AUDITORE 492 01:21:36 97 388 11:23 105 448 03:34 50 196 41:20 14.5 m/hr 114 523 03:15 67 248 22:02 9:11 min/m
62 243 Stephanie FISHEL 812 01:22:01 64 261 10:40 44 215 02:24 45 174 40:40 14.8 m/hr 61 286 02:10 123 493 26:05 10:52 min/m
63 246 Jennifer LEOS 54 01:22:07 129 559 12:36 64 288 02:45 44 172 40:39 14.8 m/hr 73 346 02:24 92 355 23:41 9:52 min/m
64 247 Susannah NICHOLSON 840 01:22:07 66 264 10:41 77 339 03:00 98 440 48:05 12.5 m/hr 49 216 01:57 9 43 18:23 7:39 min/m
65 249 Jackie GARZA 674 01:22:12 71 279 10:45 6 50 01:30 72 307 43:57 13.7 m/hr 7 58 01:20 105 414 24:39 10:16 min/m
66 255 Elisa GARCIA 515 01:22:40 76 299 10:50 72 308 02:51 67 283 43:22 13.8 m/hr 53 249 02:04 90 342 23:31 9:48 min/m
67 260 Marie IMMENHAUSER 329 01:22:48 41 161 10:15 34 169 02:14 63 257 42:49 14.0 m/hr 143 629 04:19 87 318 23:10 9:39 min/m
68 269 Jen ANTHONY 785 01:23:19 11 56 09:29 93 403 03:21 82 351 45:03 13.3 m/hr 62 287 02:10 88 324 23:14 9:41 min/m
69 277 Laura SCHAFER 287 01:23:31 114 477 11:52 81 367 03:10 90 389 46:30 12.9 m/hr 55 256 02:04 28 114 19:53 8:17 min/m
70 284 Holly MCKEE 833 01:23:41 82 328 11:00 97 423 03:25 91 390 46:31 12.9 m/hr 18 93 01:32 47 184 21:12 8:50 min/m
71 295 Christina WIMBERLY 779 01:24:17 52 217 10:29 31 158 02:10 85 366 45:44 13.1 m/hr 32 141 01:44 100 378 24:08 10:03 min/m
72 298 Alexandra VALLEJO 464 01:24:28 113 475 11:52 102 440 03:32 80 336 44:45 13.4 m/hr 58 266 02:05 70 256 22:12 9:15 min/m
73 299 Kara GUERRY 161 01:24:30 120 507 12:08 89 389 03:17 52 198 41:27 14.5 m/hr 96 444 02:48 108 420 24:48 10:20 min/m
74 303 Paula TRENT 326 01:24:44 60 236 10:34 74 324 02:56 104 458 48:41 12.3 m/hr 48 213 01:57 41 149 20:34 8:34 min/m
75 304 Gina MURRAY 538 01:24:45 94 369 11:17 104 447 03:34 57 235 42:21 14.2 m/hr 124 553 03:29 97 371 24:04 10:01 min/m
76 306 Dedra WOLFF 476 01:24:49 79 315 10:55 115 496 03:55 97 437 47:58 12.5 m/hr 88 406 02:38 20 88 19:22 8:04 min/m
77 308 Kimberly VOWELL 673 01:24:53 37 147 10:09 100 438 03:31 84 355 45:18 13.2 m/hr 103 476 03:02 80 300 22:51 9:31 min/m
78 319 Donna MINNIEAR 436 01:25:29 70 278 10:45 106 451 03:35 78 326 44:15 13.6 m/hr 141 625 04:17 75 284 22:35 9:24 min/m
79 322 Joyce ROUNTREE 708 01:25:52 62 243 10:35 108 463 03:40 42 159 40:16 14.9 m/hr 147 646 04:45 130 526 26:34 11:04 min/m
80 331 Chastity DODD 151 01:26:07 67 270 10:42 55 257 02:38 101 445 48:11 12.4 m/hr 91 424 02:43 59 235 21:52 9:06 min/m
81 332 Elizabeth MEEHAN 665 01:26:07 12 64 09:33 69 296 02:49 102 449 48:13 12.4 m/hr 13 72 01:26 98 372 24:04 10:01 min/m
82 336 Kelly HAMPTON 660 01:26:18 72 287 10:46 73 316 02:54 105 471 49:09 12.2 m/hr 60 283 02:09 48 193 21:18 8:52 min/m
83 340 Christi HOLLIS 759 01:26:40 53 218 10:30 27 140 02:05 110 483 49:33 12.1 m/hr 83 391 02:35 60 237 21:56 9:08 min/m
84 348 Mary Frances KOPCHO 525 01:26:52 28 124 10:02 58 272 02:41 71 306 43:55 13.7 m/hr 105 484 03:02 137 552 27:09 11:18 min/m
85 350 Katie ELSBURY 399 01:26:59 93 367 11:15 80 360 03:06 99 442 48:07 12.5 m/hr 10 63 01:21 86 316 23:07 9:38 min/m
86 351 Michelle IMHOLTE 821 01:26:59 1 5 08:35 52 238 02:31 89 380 46:22 12.9 m/hr 95 440 02:47 131 532 26:42 11:07 min/m
87 353 Melissa CHIASSON 501 01:27:03 73 289 10:48 21 110 01:55 116 509 50:47 11.8 m/hr 26 118 01:40 58 234 21:51 9:06 min/m
88 354 Teresa MOORE 66 01:27:05 142 632 13:32 122 540 04:18 86 368 45:50 13.1 m/hr 101 461 02:55 38 144 20:29 8:32 min/m
89 356 Kelly HUBER 761 01:27:08 121 511 12:10 17 83 01:46 92 403 46:47 12.8 m/hr 33 142 01:45 104 413 24:38 10:16 min/m
90 365 Carrie CLEMONS 139 01:27:29 130 565 12:39 87 386 03:16 75 323 44:13 13.6 m/hr 131 578 03:40 91 354 23:40 9:51 min/m
91 367 Susan MILLS 195 01:27:32 55 224 10:31 32 167 02:13 79 330 44:28 13.5 m/hr 125 555 03:30 132 535 26:47 11:09 min/m
92 368 Nicky CONNELL 143 01:27:35 83 329 11:00 127 567 04:32 60 250 42:41 14.1 m/hr 134 588 03:48 119 469 25:32 10:38 min/m
93 371 Erin SULLIVAN 549 01:27:41 25 106 09:56 109 465 03:41 87 375 46:08 13.0 m/hr 11 70 01:26 128 519 26:28 11:01 min/m
94 375 Gusti NEWQUIST 197 01:27:59 43 165 10:16 67 293 02:48 95 415 47:08 12.7 m/hr 16 83 01:29 126 514 26:17 10:57 min/m
95 377 Heather SCOTT 10 01:28:03 148 652 13:55 51 237 02:31 58 238 42:23 14.2 m/hr 59 274 02:07 136 549 27:04 11:16 min/m
96 388 Rachel FRASER 407 01:28:17 145 643 13:43 126 558 04:27 73 320 44:10 13.6 m/hr 99 450 02:51 85 311 23:04 9:36 min/m
97 390 Kristie BROWN 77 01:28:17 136 606 13:09 42 210 02:23 27 98 38:33 15.6 m/hr 122 550 03:27 148 640 30:43 12:48 min/m
98 393 Danette FJERSTAD 71 01:28:28 132 573 12:42 65 290 02:46 93 405 46:48 12.8 m/hr 31 139 01:44 103 399 24:25 10:10 min/m
99 397 Erin BELANGER 559 01:28:46 92 365 11:14 60 276 02:42 119 520 51:10 11.7 m/hr 25 113 01:39 65 245 21:59 9:09 min/m
100 405 Michelle KLINE 19 01:29:02 90 361 11:13 43 214 02:23 106 472 49:09 12.2 m/hr 72 343 02:23 93 360 23:51 9:56 min/m
101 410 Catherine HIX 170 01:29:07 108 446 11:41 120 533 04:12 109 482 49:32 12.1 m/hr 116 528 03:18 36 137 20:21 8:29 min/m
102 413 Sandra PIEDRA 960 01:29:19 123 519 12:15 142 639 06:03 55 224 42:10 14.2 m/hr 137 600 03:56 110 428 24:52 10:22 min/m
103 420 Melanie HUTZLER 302 01:29:45 111 461 11:47 117 510 04:04 81 337 44:46 13.4 m/hr 64 290 02:11 133 539 26:55 11:13 min/m
104 421 Tammi BARNETT 372 01:29:52 133 584 12:50 136 611 05:16 65 270 43:01 13.9 m/hr 152 678 05:44 82 305 22:59 9:34 min/m
105 423 Amy LUNSFORD 189 01:30:00 117 491 11:58 130 587 04:48 69 295 43:43 13.7 m/hr 138 603 03:58 117 465 25:30 10:37 min/m
106 428 Danie CHRISOPE 385 01:30:06 127 546 12:29 99 434 03:29 53 215 41:57 14.3 m/hr 77 355 02:27 144 626 29:43 12:23 min/m
107 429 Urvi BHANDARI 127 01:30:16 118 504 12:05 135 603 05:07 61 252 42:44 14.0 m/hr 133 586 03:47 129 522 26:31 11:03 min/m
108 435 Jennica COLVIN 43 01:30:47 110 458 11:47 15 77 01:43 115 508 50:44 11.8 m/hr 41 173 01:50 106 415 24:42 10:17 min/m
109 436 Angela ROBB 454 01:30:53 49 202 10:25 107 457 03:38 125 544 52:27 11.4 m/hr 47 206 01:56 72 272 22:25 9:20 min/m
110 438 Emmanuelle CAHANE 330 01:30:56 65 262 10:40 131 592 04:51 94 407 46:55 12.8 m/hr 85 394 02:35 122 483 25:53 10:47 min/m
111 443 Tonya KRAMER 737 01:31:21 131 569 12:40 138 621 05:35               147 637 30:30 12:42 min/m
112 448 Bond ANDREWS 654 01:31:32 33 137 10:06 96 413 03:22 120 528 51:22 11.7 m/hr 42 180 01:51 109 421 24:48 10:20 min/m
113 453 Jaime SHEPPARD 639 01:32:04 30 128 10:03 113 477 03:44 126 546 52:34 11.4 m/hr 97 448 02:50 79 298 22:50 9:31 min/m
114 457 Yumi HANEY 631 01:32:09 141 631 13:31 129 583 04:45               12 56 18:51 7:51 min/m
115 458 Karen JAKUBCZAK 520 01:32:09 36 144 10:07 147 669 08:28 108 481 49:28 12.1 m/hr 75 351 02:26 53 213 21:38 9:01 min/m
116 459 Mary Ellen ROWE 776 01:32:10 59 234 10:33 110 466 03:42 107 476 49:25 12.1 m/hr 108 492 03:04 116 459 25:24 10:35 min/m
117 468 Veronica ALANIZ 364 01:32:33 75 297 10:50 144 659 07:27 112 490 49:49 12.0 m/hr 121 548 03:27 46 175 20:58 8:44 min/m
118 482 Jennifer SALLING 221 01:33:29 48 181 10:19 114 481 03:46 111 485 49:38 12.1 m/hr 126 561 03:33 125 502 26:10 10:54 min/m
119 484 Nancy PEREZ 846 01:33:34 89 355 11:11 54 254 02:37 103 451 48:18 12.4 m/hr 109 499 03:08 140 583 28:19 11:48 min/m
120 485 Cristina TORRES 324 01:33:36 128 555 12:34 86 385 03:16 83 354 45:16 13.3 m/hr 150 657 04:59 138 562 27:29 11:27 min/m
121 490 Lynley SERRATT 226 01:34:04 32 131 10:04 95 409 03:22 137 594 55:40 10.8 m/hr 93 434 02:45 69 255 22:12 9:15 min/m
122 498 Ali CHIOMARINES 754 01:34:25 87 347 11:07 45 222 02:26 139 606 56:50 10.6 m/hr 21 107 01:37 71 268 22:23 9:19 min/m
123 504 Leora CREAMEAN 504 01:34:37 105 435 11:36 13 73 01:42 129 552 53:14 11.3 m/hr 102 475 03:01 112 437 25:02 10:25 min/m
124 505 Melanie CASTILLO 70 01:34:41 138 611 13:15 79 351 03:04 133 585 55:11 10.9 m/hr 129 568 03:35 22 94 19:34 8:09 min/m
125 515 Stacey SCHUETZE 225 01:35:16 107 438 11:37 125 552 04:24 127 547 52:47 11.4 m/hr 69 329 02:20 99 375 24:06 10:02 min/m
126 524 Jennifer GANLEY 409 01:36:01 81 320 10:57 134 600 05:05 96 425 47:27 12.6 m/hr 153 681 06:44 120 478 25:46 10:44 min/m
127 529 Nina KELLEY 179 01:36:18 84 331 11:00 88 387 03:16 117 512 50:52 11.8 m/hr 44 194 01:54 143 612 29:13 12:10 min/m
128 533 Susan CONTRERAS 28 01:36:48 149 668 14:27 85 379 03:13 124 543 52:27 11.4 m/hr 89 419 02:41 96 365 23:58 9:59 min/m
129 534 Chanel GUILLERMO 518 01:36:48 74 293 10:48 84 375 03:12 123 534 51:49 11.6 m/hr 67 312 02:17 141 597 28:41 11:57 min/m
130 536 Courtney TESHOIAN 233 01:36:58 115 478 11:52 148 672 08:56 113 502 50:39 11.8 m/hr 123 552 03:28 66 247 22:02 9:10 min/m
131 538 Melissa KURTH 422 01:37:05 40 157 10:14 90 392 03:18 131 578 54:41 11.0 m/hr 117 530 03:18 118 468 25:32 10:38 min/m
132 542 Jennifer STEELE 457 01:37:30 42 164 10:16 75 327 02:57 149 664 01:03:49 9.4 m/hr 15 79 01:28 14 65 18:58 7:54 min/m
133 547 Corinna ROSS 218 01:38:02 46 173 10:17 103 445 03:33 88 379 46:20 12.9 m/hr 111 516 03:14 155 683 34:36 14:25 min/m
134 550 Michelle MARTIN 342 01:38:14 109 454 11:44 140 628 05:45 122 533 51:47 11.6 m/hr 135 594 03:54 113 438 25:02 10:26 min/m
135 559 Lesley HEINRICH 3 01:38:37 122 517 12:14 133 595 04:56 128 550 53:10 11.3 m/hr 115 527 03:18 111 433 24:57 10:24 min/m
136 575 Linda MOLINA 768 01:39:31 137 610 13:14 139 625 05:40 132 581 54:55 10.9 m/hr 110 500 03:08 73 276 22:32 9:23 min/m
137 587 Krista PERALEZ 602 01:40:28 58 233 10:33 128 577 04:38 121 531 51:31 11.6 m/hr 81 381 02:32 151 650 31:12 13:00 min/m
138 591 April JOHNSON 690 01:40:39 135 602 13:05 91 394 03:19 134 589 55:21 10.8 m/hr 94 439 02:47 124 495 26:06 10:52 min/m
139 594 Kaela HOSKINGS 172 01:40:47 116 489 11:58 63 281 02:45 114 504 50:40 11.8 m/hr 144 639 04:28 149 643 30:54 12:52 min/m
140 604 Kristen LESSMAN 764 01:42:14 56 226 10:32 141 636 05:55 148 662 01:03:36 9.4 m/hr 100 459 02:54 16 83 19:16 8:02 min/m
141 605 Kari THRESHER 641 01:42:16 102 424 11:33 123 542 04:18 146 658 01:02:59 9.5 m/hr 27 126 01:42 54 219 21:40 9:02 min/m
142 612 Michelle MILLER 767 01:43:03             140 608 57:07 10.5 m/hr 119 542 03:23 121 482 25:52 10:46 min/m
143 613 Jamie WEBSTER 619 01:43:07 98 398 11:26 94 404 03:21 130 565 54:07 11.1 m/hr 113 522 03:15 150 644 30:57 12:53 min/m
144 614 Sara COTTON 144 01:43:13 126 543 12:28 137 619 05:28 118 513 50:54 11.8 m/hr 140 624 04:17 146 635 30:05 12:32 min/m
145 618 April ZIMMERMANN 703 01:43:37 143 634 13:34 70 302 02:51 141 617 58:08 10.3 m/hr 142 628 04:19 107 417 24:44 10:18 min/m
146 623 Suzanne DROTMAN 39 01:44:08 150 675 14:50 121 535 04:15 74 321 44:11 13.6 m/hr 136 599 03:56 157 701 36:54 15:22 min/m
147 627 Jill ROBERTS 215 01:44:39 104 433 11:35 146 666 07:56 136 592 55:34 10.8 m/hr 139 620 04:15 114 450 25:17 10:32 min/m
148 636 Moneesha GARCIA 758 01:46:09             145 646 01:01:27 9.8 m/hr 70 336 02:22 135 546 27:02 11:16 min/m
149 647 Kristie GOBELI 714 01:47:56 106 437 11:37 116 500 03:57 144 642 01:00:41 9.9 m/hr 132 585 03:46 139 572 27:53 11:37 min/m
150 648 Monica LOSANO 738 01:47:56 151 692 17:13 30 157 02:09 143 626 59:04 10.2 m/hr 82 382 02:32 134 542 26:55 11:13 min/m
151 651 Rosalind BELLO 375 01:48:08 139 618 13:21 61 277 02:43 135 590 55:23 10.8 m/hr 45 197 01:54 156 684 34:45 14:29 min/m
152 652 Ashley JACKSON 175 01:48:12 124 523 12:16 59 274 02:42 142 619 58:19 10.3 m/hr 149 649 04:49 145 634 30:04 12:31 min/m
153 654 Melisa VALENTIN 239 01:48:26 140 622 13:23 49 234 02:30 138 601 56:04 10.7 m/hr 50 220 01:58 154 680 34:29 14:22 min/m
154 678 Ethel KRUSE 643 01:54:04 119 506 12:07 132 593 04:54 152 678 01:09:12 8.7 m/hr 79 370 02:30 115 454 25:19 10:32 min/m
155 680 Laurie FULLERTON 814 01:54:33 144 635 13:36 119 527 04:08 151 672 01:05:00 9.2 m/hr 107 487 03:03 142 598 28:43 11:58 min/m
156 697 Erika SEARS 545 02:01:49 147 647 13:51 143 657 07:16 147 660 01:03:20 9.5 m/hr 148 648 04:47 153 672 32:33 13:34 min/m
157 699 Elaine SCHUTTER 613 02:02:18 146 646 13:51 145 661 07:36 150 665 01:03:54 9.4 m/hr 151 670 05:26 152 653 31:29 13:07 min/m
Ages 40 - 44
1 14 Barb CAMPBELL 793 01:05:22 1 1 07:49 3 32 01:22 5 23 35:13 17.0 m/hr 7 77 01:28 13 91 19:29 8:07 min/m
2 16 Alicia FRANK 81 01:05:36 45 223 10:31 11 71 01:41 2 14 34:43 17.3 m/hr 19 146 01:45 1 8 16:54 7:02 min/m
3 21 Tracey SCHEFFLER 30 01:06:26 34 159 10:15 1 9 01:05 1 11 34:12 17.5 m/hr 3 33 01:12 15 100 19:40 8:11 min/m
4 26 Kim NUNEZ 202 01:07:40 11 44 09:22 8 52 01:30 8 31 36:01 16.7 m/hr 37 215 01:57 9 54 18:48 7:50 min/m
5 28 Amy BREDBENNER 109 01:07:53 6 36 09:15 4 34 01:23 6 25 35:43 16.8 m/hr 23 161 01:48 17 103 19:43 8:13 min/m
6 31 Cynthia THOREN 235 01:08:33 32 153 10:13 22 136 02:03 4 21 35:07 17.1 m/hr 66 357 02:27 8 51 18:41 7:47 min/m
7 38 Janet EVANS 807 01:08:51 2 15 08:51 12 80 01:46 24 108 38:49 15.5 m/hr 1 22 01:05 7 41 18:19 7:37 min/m
8 43 Michelle FISCHER 403 01:09:41 5 30 09:09 2 22 01:17 9 35 36:12 16.6 m/hr 14 101 01:36 33 200 21:24 8:55 min/m
9 45 Christen EDEL 331 01:10:03 40 188 10:21 5 39 01:24 15 71 37:59 15.8 m/hr 6 61 01:21 11 64 18:56 7:53 min/m
10 52 Ginger STEPHENS 269 01:10:55 21 80 09:45 17 118 01:58 20 87 38:19 15.7 m/hr 83 413 02:39 6 38 18:12 7:35 min/m
11 57 Sheila COOK 21 01:11:09 77 417 11:31 6 43 01:26 18 82 38:16 15.7 m/hr 43 265 02:05 3 20 17:48 7:25 min/m
12 71 Tatjana BAKKE 369 01:11:59 12 45 09:22 7 44 01:26 19 83 38:16 15.7 m/hr 31 183 01:53 31 177 20:59 8:44 min/m
13 75 Kelly NICHOLS 265 01:12:04 14 53 09:26 18 122 01:59 16 77 38:11 15.7 m/hr 56 322 02:19 21 125 20:07 8:23 min/m
14 78 Jennifer WALKER 554 01:12:15 19 72 09:37 24 138 02:04 12 63 37:29 16.0 m/hr 8 78 01:28 35 208 21:35 8:59 min/m
15 79 Cheryl MONTGOMERY 535 01:12:22 4 26 09:05 29 162 02:12 47 227 42:13 14.2 m/hr 26 171 01:50 2 11 17:00 7:05 min/m
16 89 Michelle LYELL 65 01:13:08 28 136 10:06 33 173 02:15 27 124 39:25 15.2 m/hr 12 91 01:32 19 108 19:49 8:15 min/m
17 98 Shannon MCCARTY 741 01:13:29 9 42 09:21 112 528 04:08 29 138 39:39 15.1 m/hr 2 28 01:09 12 75 19:10 7:59 min/m
18 102 Jen FISHER 478 01:13:34 50 266 10:41 13 86 01:47 14 70 37:51 15.9 m/hr 49 292 02:12 32 179 21:01 8:45 min/m
19 110 Susan WINNITOY 869 01:14:37 30 146 10:08 53 260 02:39 22 96 38:31 15.6 m/hr 15 103 01:36 36 223 21:42 9:02 min/m
20 111 Tonda SALLEE 220 01:14:42 3 24 09:04 39 189 02:19 26 122 39:16 15.3 m/hr 39 239 02:02 40 244 21:59 9:09 min/m
21 123 Nina SIRAK 267 01:15:15 55 300 10:50 70 338 03:00 3 19 34:54 17.2 m/hr 52 308 02:16 78 387 24:14 10:05 min/m
22 126 Kay MAILANDER 352 01:15:25 26 119 10:01 75 352 03:04 7 28 35:47 16.8 m/hr 67 358 02:27 72 373 24:05 10:02 min/m
23 127 Lisa HAMMEL 164 01:15:35 31 151 10:10 78 380 03:14 21 89 38:23 15.6 m/hr 112 505 03:10 26 152 20:35 8:34 min/m
24 129 Kimberly MCLAIN 192 01:15:39 23 96 09:51 79 381 03:14 25 109 38:50 15.4 m/hr 88 429 02:44 30 174 20:57 8:44 min/m
25 130 Deirdre HESTER 589 01:15:44 7 39 09:17 9 61 01:37 43 218 42:01 14.3 m/hr 5 44 01:14 34 206 21:34 8:59 min/m
26 135 Cynthia DAWSON 148 01:15:57 44 210 10:27 10 68 01:40 49 231 42:18 14.2 m/hr 17 135 01:43 18 105 19:47 8:14 min/m
27 143 Jenny KING 99 01:16:32 81 431 11:35 101 497 03:55 13 69 37:47 15.9 m/hr 102 477 03:02 22 129 20:10 8:24 min/m
28 145 Jamie COSTAS 503 01:16:38 38 183 10:19 30 163 02:12 10 49 36:51 16.3 m/hr 11 90 01:31 100 476 25:43 10:43 min/m
29 149 Cathryn PADILLA 312 01:16:59 61 324 10:58 98 487 03:51 23 104 38:43 15.5 m/hr 85 422 02:41 27 158 20:44 8:38 min/m
30 150 Amy GREEN 876 01:17:00 114 551 12:32 21 132 02:02 17 81 38:16 15.7 m/hr 48 285 02:10 39 241 21:58 9:09 min/m
31 151 Lisa SHACKELFORD 227 01:17:01 10 43 09:21 32 165 02:13 66 333 44:36 13.4 m/hr 36 212 01:57 10 58 18:52 7:52 min/m
32 159 Laura MOORE 834 01:17:30 13 48 09:24 64 318 02:54 57 273 43:05 13.9 m/hr 62 345 02:24 16 102 19:41 8:12 min/m
33 172 Teresa GARCIA 411 01:18:08 29 141 10:07 46 227 02:28 32 156 40:04 15.0 m/hr 30 181 01:52 66 348 23:35 9:49 min/m
34 180 Ade ADELEKE 782 01:18:37 36 171 10:17 35 184 02:18 58 274 43:07 13.9 m/hr 103 478 03:02 20 111 19:51 8:16 min/m
35 187 Leslie BOOKER 283 01:19:03 78 420 11:33 123 580 04:41 11 62 37:29 16.0 m/hr 50 293 02:13 57 313 23:05 9:37 min/m
36 200 Mitchalina KENNEY 276 01:19:49 52 281 10:46 36 185 02:18 28 132 39:35 15.2 m/hr 130 602 03:57 58 320 23:12 9:40 min/m
37 213 Kelly ADAMS ERWIN 723 01:20:42 60 318 10:56 103 504 03:59 33 157 40:08 14.9 m/hr 114 510 03:12 47 269 22:23 9:19 min/m
38 215 Stephanie CARTER 556 01:20:46 20 76 09:39 38 188 02:19 36 182 40:56 14.7 m/hr 73 378 02:32 93 453 25:18 10:32 min/m
39 217 Rebecca BOND 377 01:20:47 48 248 10:37 37 187 02:18 30 140 39:41 15.1 m/hr 109 495 03:07 91 440 25:03 10:26 min/m
40 226 Ashley ANDRES 562 01:21:19 8 41 09:20 116 560 04:29 34 165 40:22 14.9 m/hr 117 531 03:19 70 359 23:47 9:54 min/m
41 229 Robyn KENNEDY 180 01:21:28 51 271 10:42 34 176 02:16 55 267 42:58 14.0 m/hr 25 163 01:48 69 356 23:41 9:52 min/m
42 238 Beth BATEY 564 01:21:49 22 89 09:49 25 142 02:05 62 294 43:42 13.7 m/hr 42 255 02:04 73 376 24:06 10:02 min/m
43 240 Tonya STILWELL 672 01:21:51 49 259 10:40 89 430 03:28 38 188 41:05 14.6 m/hr 53 314 02:17 79 396 24:19 10:08 min/m
44 248 Tara PAUL 355 01:22:08 82 432 11:35 77 371 03:10 61 287 43:34 13.8 m/hr 10 85 01:30 44 261 22:17 9:17 min/m
45 250 Darla TUCKER 462 01:22:26 53 286 10:46 27 148 02:07 42 213 41:55 14.3 m/hr 20 147 01:46 102 480 25:50 10:46 min/m
46 256 Colette KARLSEN 85 01:22:41 97 502 12:04 19 129 02:02 51 245 42:31 14.1 m/hr 64 352 02:26 67 349 23:36 9:50 min/m
47 259 Maureen BECKETT 126 01:22:47 85 450 11:43 20 130 02:02 46 226 42:12 14.2 m/hr 132 611 04:06 54 292 22:42 9:27 min/m
48 262 Amy RIVERA 213 01:22:53 15 57 09:29 72 343 03:01 52 246 42:32 14.1 m/hr 119 534 03:20 83 404 24:28 10:11 min/m
49 267 Deborah OLSON 706 01:23:09 71 380 11:20 126 589 04:49 64 308 43:59 13.6 m/hr 87 428 02:44 23 133 20:16 8:26 min/m
50 273 Sharon SANCHEZ 608 01:23:23 67 341 11:06 104 506 04:02 102 452 48:21 12.4 m/hr 35 201 01:55 4 23 17:58 7:29 min/m
51 276 Kelly NEVILLE 539 01:23:28 79 422 11:33 108 516 04:05 45 222 42:06 14.2 m/hr 68 362 02:28 61 325 23:14 9:41 min/m
52 278 Sheri GAGLIANO 815 01:23:33 18 70 09:35 73 346 03:02 73 357 45:24 13.2 m/hr 108 494 03:05 48 271 22:25 9:20 min/m
53 280 Jennifer RETZLOFF 212 01:23:35 17 69 09:34 47 228 02:28 87 396 46:34 12.9 m/hr 82 410 02:38 45 264 22:18 9:17 min/m
54 282 Karan DUNCAN 152 01:23:38 89 469 11:50 42 209 02:23 39 199 41:36 14.4 m/hr 63 350 02:26 95 457 25:22 10:34 min/m
55 286 Laura BARRERA 291 01:23:44 69 371 11:17 90 436 03:29 63 305 43:54 13.7 m/hr 24 162 01:48 60 322 23:13 9:40 min/m
56 288 Julie LAWRENCE 423 01:23:46 65 338 11:04 128 599 05:05 48 228 42:14 14.2 m/hr 101 471 02:59 46 266 22:23 9:19 min/m
57 290 Kelley WOLF 469 01:23:58 24 101 09:55 16 116 01:57 98 429 47:38 12.6 m/hr 4 38 01:13 59 321 23:13 9:40 min/m
58 293 Phuong ZUBKOFF 328 01:24:07             31 151 39:58 15.0 m/hr 123 580 03:41 86 407 24:30 10:12 min/m
59 310 Kimberly VOLLMER 552 01:24:58 27 120 10:01 105 511 04:04 74 359 45:30 13.2 m/hr 41 250 02:04 62 328 23:17 9:42 min/m
60 312 Grace PEREZ 207 01:24:59 58 312 10:54 26 145 02:06 67 335 44:45 13.4 m/hr 21 153 01:47 97 460 25:25 10:35 min/m
61 313 Kelley PREVOU 210 01:25:03 101 509 12:09 68 334 02:59 54 255 42:47 14.0 m/hr 120 558 03:32 65 347 23:33 9:49 min/m
62 314 Kathy POLLESCHULTZ 485 01:25:04 54 295 10:49 60 289 02:46 92 412 47:05 12.7 m/hr 9 84 01:29 55 302 22:54 9:32 min/m
63 318 Michele DEMPSEY 149 01:25:18 87 459 11:47 41 202 02:21 97 426 47:28 12.6 m/hr 98 465 02:56 28 159 20:44 8:38 min/m
64 320 Vicki BRADBEER 487 01:25:36 16 63 09:32 92 458 03:39 84 386 46:27 12.9 m/hr 57 324 02:19 68 351 23:37 9:50 min/m
65 325 Beth JACKSON 84 01:26:00 91 471 11:50 40 193 02:19 56 272 43:04 13.9 m/hr 84 417 02:41 107 492 26:04 10:52 min/m
66 326 Meredith WOODS 327 01:26:01 83 434 11:36 96 479 03:46 44 219 42:02 14.3 m/hr 124 584 03:45 89 424 24:50 10:21 min/m
67 327 Wendy SCHNELL 223 01:26:02 86 457 11:45 58 273 02:42 41 210 41:47 14.4 m/hr 70 371 02:30 116 555 27:17 11:22 min/m
68 333 Lisa CUMMINGS 389 01:26:09 25 105 09:56 83 406 03:21 85 388 46:29 12.9 m/hr 96 460 02:54 64 337 23:27 9:46 min/m
69 339 Michele MARTIN 431 01:26:35 56 302 10:50 43 211 02:23 71 347 45:00 13.3 m/hr 59 338 02:23 104 487 25:58 10:49 min/m
70 345 Stacy SPARKS 336 01:26:48 63 332 11:01 63 314 02:52 60 284 43:22 13.8 m/hr 91 438 02:47 111 533 26:45 11:08 min/m
71 347 Frances PONSIOEN 707 01:26:48 100 508 12:09 88 425 03:25 76 363 45:39 13.1 m/hr 95 458 02:54 53 290 22:40 9:26 min/m
72 355 Robin CHABOT 137 01:27:06 35 168 10:16 74 347 03:02 105 461 48:49 12.3 m/hr 113 506 03:11 38 227 21:46 9:04 min/m
73 358 Donielle CLARK 138 01:27:18 96 498 12:02               125 587 03:47 98 471 25:33 10:39 min/m
74 359 Laura SHELTON 320 01:27:19 59 317 10:56 69 336 02:59 59 275 43:11 13.9 m/hr 93 446 02:50 118 560 27:21 11:23 min/m
75 360 Meggan WEBBER 866 01:27:19 37 180 10:19 76 366 03:09 89 398 46:37 12.9 m/hr 106 488 03:04 74 380 24:09 10:03 min/m
76 361 Mary Joy HYDE HAMISCH 519 01:27:22 84 445 11:41 61 305 02:51 121 540 52:21 11.5 m/hr 55 317 02:18 5 35 18:09 7:33 min/m
77 366 Melissa DELGADO 296 01:27:29 92 476 11:52 51 258 02:38 81 373 46:06 13.0 m/hr 137 627 04:18 50 277 22:32 9:23 min/m
78 369 Sherri BUTLER 131 01:27:40             100 438 48:01 12.5 m/hr 99 469 02:57 29 167 20:49 8:40 min/m
79 376 Susan SCHEUER 68 01:27:59 137 636 13:36 23 137 02:03 35 180 40:54 14.7 m/hr 34 200 01:54 135 619 29:29 12:17 min/m
80 380 Stacy GREENE 688 01:28:09 147 684 15:31 133 616 05:26 37 183 40:56 14.7 m/hr 140 640 04:28 37 226 21:45 9:04 min/m
81 391 Julissa SCHULTZ 455 01:28:18 43 205 10:25               121 559 03:33 108 517 26:26 11:01 min/m
82 392 Lisa GARCIA 816 01:28:21 39 186 10:20 114 551 04:23 107 467 48:59 12.2 m/hr 60 342 02:23 43 257 22:13 9:15 min/m
83 395 Nicole HOUSEHOLDER 717 01:28:41 129 607 13:09 117 562 04:30 68 339 44:48 13.4 m/hr 16 134 01:43 84 405 24:29 10:12 min/m
84 398 Christina EZELL 652 01:28:46 117 557 12:35 31 164 02:12 90 400 46:41 12.9 m/hr 40 246 02:03 92 448 25:13 10:30 min/m
85 399 Camilla LEVARIO 186 01:28:49 103 512 12:10 55 263 02:39 40 202 41:41 14.4 m/hr 118 532 03:20 130 605 28:56 12:03 min/m
86 400 Christine DEACON 507 01:28:54 95 485 11:55 48 244 02:33 53 251 42:43 14.0 m/hr 58 332 02:21 134 613 29:19 12:13 min/m
87 412 Deb OLIVER 445 01:29:11 90 470 11:50 14 88 01:49 75 361 45:36 13.2 m/hr 33 190 01:54 121 576 28:01 11:40 min/m
88 418 Monica SCHOENEMANN 611 01:29:39 41 197 10:23 28 150 02:08 86 391 46:31 12.9 m/hr 13 92 01:32 131 606 29:04 12:06 min/m
89 419 Mariana GONZALEZ 709 01:29:41 70 379 11:20 102 498 03:56 99 433 47:49 12.5 m/hr 46 277 02:08 82 402 24:26 10:11 min/m
90 424 Renee RAMON 451 01:30:01 46 232 10:33 87 419 03:24 78 370 45:57 13.1 m/hr 29 178 01:51 124 581 28:14 11:45 min/m
91 427 Cindy HERRERA 262 01:30:05 47 242 10:35 49 248 02:35 80 372 46:06 13.0 m/hr 69 367 02:29 126 585 28:19 11:48 min/m
92 433 Kelly STIGER 859 01:30:41 112 547 12:30 118 572 04:35 91 409 47:02 12.8 m/hr 44 270 02:06 81 401 24:26 10:10 min/m
93 437 Christina WELCH 16 01:30:54 111 539 12:26 113 536 04:16 94 414 47:07 12.7 m/hr 80 402 02:37 80 400 24:25 10:10 min/m
94 447 Susan POLLOK 848 01:31:32 135 629 13:29 54 261 02:39 113 505 50:41 11.8 m/hr 45 271 02:06 52 283 22:35 9:24 min/m
95 450 Tasha WILKINSON 623 01:31:39 88 462 11:47 82 397 03:20 110 488 49:45 12.1 m/hr 32 187 01:53 90 426 24:51 10:21 min/m
96 451 Connie COLE 141 01:31:46 93 479 11:52 56 266 02:40 103 454 48:28 12.4 m/hr 89 431 02:44 105 488 25:58 10:49 min/m
97 456 Shannon JACKSON 303 01:32:09 66 340 11:06 135 630 05:48 70 346 44:59 13.3 m/hr 100 470 02:58 117 556 27:17 11:22 min/m
98 460 Laura ZIVLEY 249 01:32:18 132 620 13:22 80 391 03:17 69 341 44:53 13.4 m/hr 147 693 08:11 51 278 22:32 9:23 min/m
99 462 Robyn OLIVER 561 01:32:19 72 406 11:28 44 219 02:25 96 423 47:24 12.7 m/hr 22 156 01:48 133 611 29:13 12:10 min/m
100 465 Nancy BARNETT 371 01:32:29 136 633 13:32 81 393 03:18               49 275 22:32 9:23 min/m
101 471 Diana BUSTOS 627 01:32:43 133 621 13:23 125 586 04:45 115 514 50:54 11.8 m/hr 134 613 04:06 14 92 19:33 8:08 min/m
102 472 Heather ANDREWS 677 01:32:55 94 484 11:55 110 518 04:05 118 532 51:36 11.6 m/hr 51 298 02:14 56 310 23:03 9:36 min/m
103 478 Vicki BROOKS 569 01:33:13 98 503 12:05 71 340 03:00 106 462 48:51 12.3 m/hr 139 638 04:28 87 419 24:47 10:19 min/m
104 480 Christy LLOYD 527 01:33:23 64 335 11:02 52 259 02:39 101 448 48:12 12.4 m/hr 79 401 02:37 129 603 28:51 12:01 min/m
105 481 Abigail HASBERRY 285 01:33:24 73 407 11:28 97 486 03:50 95 421 47:15 12.7 m/hr 107 491 03:04 119 569 27:46 11:34 min/m
106 487 Maria MOORE 438 01:33:52 118 562 12:37               72 375 02:31 103 484 25:55 10:48 min/m
107 492 Carolyn FRANK 757 01:34:08             122 545 52:28 11.4 m/hr 128 593 03:52 41 252 22:08 9:13 min/m
108 493 Elda OLVERA 871 01:34:18 119 564 12:38 109 517 04:05 108 469 49:01 12.2 m/hr 94 457 02:53 99 475 25:39 10:41 min/m
109 497 Claudia SCHROEDER 612 01:34:23 42 201 10:25 95 473 03:44 93 413 47:05 12.7 m/hr 138 634 04:24 128 599 28:44 11:58 min/m
110 502 Trish MARTIN 483 01:34:31 122 571 12:42 129 605 05:10 65 331 44:31 13.5 m/hr 148 694 08:41 63 334 23:25 9:45 min/m
111 513 Yolanda OWENS 670 01:35:11 74 410 11:29 45 226 02:28 111 499 50:26 11.9 m/hr 74 379 02:32 125 582 28:14 11:46 min/m
112 520 Theresa ARTHUR 367 01:35:52 127 595 13:00 131 607 05:11 79 371 45:59 13.0 m/hr 146 687 07:10 85 406 24:30 10:12 min/m
113 521 Glenda ENSLEY 346 01:35:54 104 516 12:14 67 333 02:58 72 349 45:02 13.3 m/hr 145 665 05:23 139 636 30:15 12:36 min/m
114 522 Kathleen MAYES 433 01:35:55             119 537 52:20 11.5 m/hr 27 172 01:50 71 369 24:02 10:01 min/m
115 526 Kelley BRODBECK 38 01:36:09 128 601 13:02 59 286 02:45 116 518 51:04 11.7 m/hr 78 400 02:37 110 531 26:39 11:06 min/m
116 543 Molly MARTIN 740 01:37:33 113 550 12:31 134 620 05:33 117 519 51:04 11.7 m/hr 105 483 03:02 94 456 25:21 10:33 min/m
117 544 Karen JENNINGS 177 01:37:36 123 576 12:43 66 331 02:58 83 385 46:27 12.9 m/hr 126 590 03:50 140 657 31:36 13:10 min/m
118 549 Natasha MCARTHUR 832 01:38:11 33 158 10:15 85 408 03:21 135 629 59:10 10.1 m/hr 116 514 03:13 42 253 22:09 9:14 min/m
119 555 Leslie ZAMORA 781 01:38:30 125 585 12:51                     24 146 20:29 8:32 min/m
120 565 Krissy AMATO 18 01:38:49 68 352 11:10 91 446 03:33 138 643 01:00:59 9.8 m/hr 71 374 02:30 25 151 20:34 8:34 min/m
121 567 Mariela DELGADO 755 01:38:57 75 415 11:31 122 579 04:41 82 374 46:07 13.0 m/hr 149 698 10:03 109 525 26:33 11:03 min/m
122 568 Lisa RICHARDSON 317 01:39:01 146 679 15:06 86 418 03:24 104 460 48:47 12.3 m/hr 115 511 03:12 127 592 28:29 11:52 min/m
123 578 Jeanette FIELDS 273 01:39:40 143 662 14:09 93 460 03:40 50 241 42:26 14.1 m/hr 133 612 04:06 145 689 35:18 14:42 min/m
124 580 Trish WILLIAMS 246 01:39:53 116 556 12:35 62 313 02:52 125 559 53:25 11.2 m/hr 135 615 04:07 112 538 26:51 11:11 min/m
125 584 Caryn BARNES 123 01:40:19 57 309 10:54 99 488 03:51 127 574 54:27 11.0 m/hr 97 464 02:56 123 578 28:10 11:44 min/m
126 588 Tina WARREN 243 01:40:34 124 578 12:45 111 526 04:08 133 612 57:38 10.4 m/hr 28 176 01:51 75 382 24:11 10:04 min/m
127 593 Vicki LUNDY 188 01:40:45 126 594 12:58 106 513 04:05 77 367 45:49 13.1 m/hr 150 701 13:39 76 384 24:12 10:05 min/m
128 595 Marcy CHARMAN 877 01:40:54 105 520 12:15 65 320 02:55 126 560 53:30 11.2 m/hr 104 482 03:02 132 609 29:09 12:09 min/m
129 602 Tiffany GRASSMUCK 687 01:42:09 62 330 11:00 50 250 02:36 140 654 01:02:02 9.7 m/hr 54 315 02:17 77 385 24:12 10:05 min/m
130 603 Jenny RIBERA 849 01:42:13 102 510 12:10 100 489 03:51 132 603 56:23 10.6 m/hr 18 138 01:44 122 577 28:03 11:41 min/m
131 608 Vicky POND 314 01:42:31 115 552 12:32 107 515 04:05 128 587 55:16 10.9 m/hr 90 436 02:46 120 571 27:50 11:36 min/m
132 621 Melanie RICHARDSON 9 01:43:45 148 687 15:45 137 638 05:59 123 556 53:19 11.3 m/hr 81 407 02:38 106 491 26:02 10:50 min/m
133 622 Kim ELSWICK 2 01:44:02 106 521 12:16 140 644 06:22 112 500 50:32 11.9 m/hr 142 658 05:07 138 628 29:44 12:23 min/m
134 624 Carol HARRIS 819 01:44:11 121 567 12:39 144 675 10:18 120 538 52:20 11.5 m/hr 131 609 04:03 88 422 24:49 10:20 min/m
135 625 Dawn FITZGERALD 734 01:44:12 110 538 12:25 141 645 06:26 114 506 50:42 11.8 m/hr 141 653 04:53 137 627 29:44 12:23 min/m
136 630 Shannon WEST 622 01:45:33 99 505 12:06 15 104 01:53 139 648 01:01:49 9.7 m/hr 77 397 02:37 115 551 27:07 11:18 min/m
137 637 Christine NGUYEN 872 01:46:13 138 637 13:36 57 269 02:41 124 558 53:24 11.2 m/hr 129 601 03:57 144 673 32:33 13:34 min/m
138 659 Shona NEIGUT 669 01:49:30 80 428 11:34 139 642 06:16 136 632 59:28 10.1 m/hr 144 663 05:15 113 540 26:55 11:13 min/m
139 662 Teresa CELESTINO 384 01:49:53 107 522 12:16 121 578 04:40 142 669 01:04:23 9.3 m/hr 86 423 02:42 101 479 25:50 10:45 min/m
140 663 Terri THOMPSON 6 01:50:16 142 658 14:00 138 640 06:09 109 477 49:25 12.1 m/hr 136 622 04:16 147 699 36:24 15:10 min/m
141 664 Janel PRELLER 209 01:50:16 76 416 11:31 84 407 03:21 131 602 56:20 10.7 m/hr 38 229 01:59 148 702 37:03 15:26 min/m
142 679 Katrina DE LOS SANTOS 713 01:54:07 108 524 12:17 132 615 05:25 141 668 01:04:22 9.3 m/hr 61 344 02:23 136 623 29:38 12:20 min/m
143 681 Lisa COLLIER 728 01:54:42 141 645 13:47 124 585 04:45 144 675 01:05:53 9.1 m/hr 111 503 03:10 114 550 27:05 11:17 min/m
144 687 Sylvia CANTU 295 01:55:54 120 566 12:39 127 598 04:59 134 623 58:47 10.2 m/hr 127 592 03:52 146 691 35:35 14:49 min/m
145 688 Sandra MONTGOMERY 601 01:56:32 139 639 13:41 94 469 03:43 129 593 55:35 10.8 m/hr 110 497 03:07 149 710 40:24 16:50 min/m
146 691 Karina MENDOZA 435 01:58:41 130 614 13:19 136 637 05:56 146 680 01:10:26 8.5 m/hr 122 567 03:35 96 458 25:24 10:35 min/m
147 693 Michelle BOYCE 496 02:00:28 109 530 12:21 119 573 04:37 137 633 59:39 10.1 m/hr 92 445 02:49 150 711 41:00 17:05 min/m
148 695 Sammi BROUSSARD 570 02:01:38 140 641 13:42 142 658 07:16 143 673 01:05:32 9.2 m/hr 76 387 02:33 143 671 32:33 13:33 min/m
149 698 Lynne COX 801 02:01:50 134 623 13:24 130 606 05:10 145 676 01:08:25 8.8 m/hr 65 356 02:27 142 669 32:23 13:29 min/m
150 702 Jodi GOODWIN 479 02:02:45 131 615 13:19 120 574 04:37 88 397 46:35 12.9 m/hr 143 659 05:07 152 714 53:04 22:06 min/m
151 704 Holly JURBERGS 480 02:04:32 145 667 14:27 115 554 04:24 130 596 55:40 10.8 m/hr 47 279 02:08 151 712 47:51 19:56 min/m
152 711 Julie LUEBBERT 636 02:17:21 149 689 16:45 143 663 07:47 147 688 01:18:30 7.6 m/hr 75 380 02:32 141 661 31:45 13:13 min/m
Ages 45 - 49
1 15 Jill HEISER 112 01:05:30 22 225 10:32 29 300 02:50 1 8 33:15 18.0 m/hr 11 150 01:47 2 14 17:05 7:07 min/m
2 18 Shelley ROBINSON 775 01:06:13 1 29 09:09               6 117 01:40 4 33 18:07 7:33 min/m
3 20 Shay ROBERTSON 104 01:06:19 26 250 10:37 6 72 01:41 5 30 35:51 16.7 m/hr 23 237 02:01 1 5 16:07 6:43 min/m
4 40 Kathryn COTHERN 259 01:08:54 7 79 09:44 19 190 02:19 8 54 37:05 16.2 m/hr 8 124 01:42 3 29 18:02 7:31 min/m
5 42 Allison STOCKER 282 01:09:30 14 123 10:02 30 303 02:51 2 15 34:45 17.3 m/hr 15 177 01:51 10 119 19:59 8:19 min/m
6 49 Janet BRODE 792 01:10:39 4 54 09:26 8 95 01:50 3 18 34:50 17.2 m/hr 4 56 01:19 34 319 23:11 9:39 min/m
7 56 Alyssa NUNEZ 843 01:11:07 2 33 09:11 9 107 01:54 15 114 39:02 15.4 m/hr 31 295 02:13 5 53 18:45 7:48 min/m
8 67 Jennifer KRONE 53 01:11:46 53 456 11:45 3 58 01:36 4 20 34:59 17.1 m/hr 43 368 02:29 14 173 20:55 8:43 min/m
9 81 Karen ALVAREZ 290 01:12:42 11 111 09:59 4 64 01:38 6 33 36:07 16.6 m/hr 68 583 03:43 18 185 21:13 8:50 min/m
10 86 Elizabeth ROSENBLUM 280 01:12:52 3 51 09:26 51 482 03:47 16 120 39:14 15.3 m/hr 2 39 01:13 7 77 19:10 7:59 min/m
11 90 Caroline ROSENBAUM 105 01:13:08 18 182 10:19 2 55 01:34 14 105 38:43 15.5 m/hr 17 185 01:53 12 155 20:38 8:35 min/m
12 99 Claudette MINOR 286 01:13:29 10 103 09:56 5 67 01:39 21 150 39:58 15.0 m/hr 30 281 02:09 9 104 19:46 8:14 min/m
13 112 Suzanne TROTTER 236 01:14:43 13 116 10:00 17 160 02:11 9 72 38:01 15.8 m/hr 20 209 01:56 30 280 22:33 9:24 min/m
14 115 Heidi MUTH 67 01:14:59 34 334 11:01 18 186 02:18 10 75 38:08 15.7 m/hr 25 244 02:02 21 204 21:27 8:56 min/m
15 122 Maggie LANDWERMEYER 182 01:15:12 23 231 10:33 1 18 01:17 13 102 38:40 15.5 m/hr 7 122 01:41 33 307 22:59 9:34 min/m
16 131 Nhung NGUYEN 444 01:15:50 27 258 10:39 11 117 01:58 11 79 38:14 15.7 m/hr 71 623 04:17 13 156 20:40 8:36 min/m
17 136 Emilia DAUWAY 391 01:15:58 15 130 10:04 14 141 02:05 23 163 40:19 14.9 m/hr 40 348 02:25 16 180 21:03 8:46 min/m
18 144 Debbie STULL 106 01:16:33 54 480 11:52 10 115 01:57 20 142 39:42 15.1 m/hr 19 207 01:56 17 181 21:03 8:46 min/m
19 153 Laurie HULL 173 01:17:17 47 429 11:34 48 472 03:43 12 101 38:39 15.5 m/hr 70 591 03:51 8 90 19:26 8:06 min/m
20 157 Angi BLACK 791 01:17:28 29 275 10:44 26 231 02:29 25 168 40:28 14.8 m/hr 33 297 02:14 22 205 21:31 8:58 min/m
21 161 Veronica GARCIA 410 01:17:32 40 373 11:18 7 81 01:46 19 133 39:35 15.2 m/hr 56 509 03:12 23 217 21:40 9:01 min/m
22 166 Sheila FERNALD 300 01:17:56 30 291 10:48 52 485 03:49 17 123 39:18 15.3 m/hr 28 276 02:07 25 232 21:51 9:06 min/m
23 174 Shonali JACOB 1207 01:18:15 12 112 10:00 63 544 04:19 29 192 41:15 14.5 m/hr 63 563 03:33 6 71 19:06 7:57 min/m
24 188 Jean LEACH-STEWART 184 01:19:09 9 100 09:55 45 433 03:28 31 233 42:20 14.2 m/hr 27 273 02:07 19 190 21:16 8:52 min/m
25 192 Steffanie SARGEANT 473 01:19:24 5 61 09:31 68 571 04:35 24 164 40:21 14.9 m/hr 38 337 02:22 29 279 22:33 9:23 min/m
26 198 Tracy BRODHACKER 726 01:19:46 8 84 09:47 21 200 02:21 41 329 44:23 13.5 m/hr 3 55 01:18 26 236 21:54 9:07 min/m
27 210 Alison COURY 712 01:20:29 17 167 10:16 39 377 03:12 28 189 41:06 14.6 m/hr 36 331 02:20 37 344 23:32 9:48 min/m
28 211 Tine AMUNDSEN 118 01:20:32 41 392 11:24 16 152 02:09 37 298 43:46 13.7 m/hr 10 144 01:45 20 203 21:26 8:56 min/m
29 212 Andrea SCHÖNEMANN 224 01:20:33             39 313 44:05 13.6 m/hr 1 35 01:12 27 260 22:14 9:16 min/m
30 244 Sherri DAVIDSON 685 01:22:03 38 354 11:11 36 361 03:06 22 162 40:16 14.9 m/hr 42 360 02:28 46 434 24:59 10:24 min/m
31 265 Elizabeth WOOD 702 01:23:05 16 132 10:04 12 127 02:01 33 258 42:50 14.0 m/hr 26 251 02:04 50 494 26:05 10:52 min/m
32 275 Lindsie FAGAN 808 01:23:27 6 71 09:36 41 396 03:20 45 348 45:01 13.3 m/hr 34 305 02:15 35 323 23:14 9:40 min/m
33 279 Norma Jean CANO 683 01:23:33 36 343 11:06 15 147 02:06 44 344 44:57 13.3 m/hr 44 377 02:31 31 299 22:51 9:31 min/m
34 289 Elizabeth FEENEY 809 01:23:53 25 247 10:36 13 139 02:04 35 260 42:51 14.0 m/hr 58 520 03:14 47 442 25:05 10:27 min/m
35 302 Diane JANSEN 304 01:24:43 37 350 11:09 22 208 02:23 50 450 48:15 12.4 m/hr 18 203 01:55 15 176 20:59 8:44 min/m
36 311 Lisa SPRING 547 01:24:58 20 206 10:26 50 480 03:46 38 301 43:49 13.7 m/hr 55 508 03:12 38 358 23:43 9:53 min/m
37 317 Coleen AUSTIN 368 01:25:17 19 185 10:20 59 522 04:07 40 316 44:06 13.6 m/hr 41 359 02:27 41 391 24:15 10:06 min/m
38 337 Elaine MORRIS 835 01:26:29 24 238 10:34 35 345 03:02 34 259 42:50 14.0 m/hr 59 541 03:23 54 530 26:38 11:06 min/m
39 389 Wanda STIGGER 873 01:28:17 75 665 14:19 23 212 02:23 54 473 49:10 12.2 m/hr 35 313 02:17 11 124 20:06 8:22 min/m
40 406 Susan BURTON 645 01:29:02 70 627 13:27 56 501 03:58 43 340 44:49 13.4 m/hr 72 636 04:24 28 267 22:23 9:19 min/m
41 408 Penny CRAWFORD 145 01:29:04 45 421 11:33 58 519 04:06 47 406 46:53 12.8 m/hr 37 335 02:22 39 379 24:09 10:03 min/m
42 409 Stephanie STRONG 459 01:29:06 63 575 12:43 25 218 02:24 7 48 36:51 16.3 m/hr 57 513 03:13 75 678 33:54 14:07 min/m
43 422 Krista FLYNN 404 01:29:58 67 592 12:58 73 613 05:19 36 280 43:16 13.9 m/hr 75 667 05:24 32 306 22:59 9:34 min/m
44 430 Christine DOUGLAS 394 01:30:32 46 426 11:33 38 372 03:10 30 200 41:37 14.4 m/hr 52 472 02:59 67 649 31:11 12:59 min/m
45 449 Cathy MODARO 87 01:31:36 44 405 11:28 20 195 02:20 27 186 40:59 14.6 m/hr 14 175 01:51 76 687 34:56 14:33 min/m
46 454 Kathi HOPKINS 275 01:32:06 58 527 12:20 74 627 05:42 46 394 46:32 12.9 m/hr 16 182 01:52 49 473 25:38 10:40 min/m
47 455 Donna TOLER 268 01:32:08 56 501 12:04 24 213 02:23 26 177 40:43 14.7 m/hr 62 560 03:33 74 676 33:23 13:54 min/m
48 477 Marie CALVILLO 499 01:33:12 33 326 10:59 27 242 02:32 42 332 44:32 13.5 m/hr 13 170 01:49 73 675 33:17 13:52 min/m
49 479 Linda MAHAN 190 01:33:21 42 394 11:25 57 512 04:05 56 510 50:50 11.8 m/hr 46 386 02:33 42 403 24:27 10:11 min/m
50 483 Yvonne BAYS 125 01:33:29 35 339 11:05 53 490 03:51 58 524 51:14 11.7 m/hr 69 589 03:48 36 339 23:28 9:46 min/m
51 486 Lynn BJOSTAD 495 01:33:46 32 325 10:59 64 549 04:21 55 475 49:18 12.2 m/hr 47 408 02:38 52 520 26:28 11:01 min/m
52 489 Patti GRANT 583 01:34:01 62 574 12:43 40 395 03:20 49 447 48:12 12.4 m/hr 76 671 05:30 40 389 24:14 10:06 min/m
53 499 Trish WALLACE 750 01:34:28 28 265 10:41 47 470 03:43               51 512 26:15 10:56 min/m
54 500 Julie ADDINGTON 626 01:34:29 21 207 10:27 37 370 03:10 62 564 53:56 11.1 m/hr 22 227 01:59 45 431 24:55 10:23 min/m
55 501 Gail SHEVICK 321 01:34:30 43 400 11:26 42 405 03:21 51 453 48:22 12.4 m/hr 48 411 02:39 59 596 28:40 11:56 min/m
56 525 Suzanne ECHEVARRIA 397 01:36:06 60 540 12:26 34 337 02:59 53 466 48:58 12.3 m/hr 45 385 02:33 60 607 29:06 12:07 min/m
57 552 Tish CLAYTON 386 01:38:22 65 582 12:47 71 601 05:06 52 463 48:52 12.3 m/hr 64 569 03:35 57 574 28:00 11:40 min/m
58 563 Tammy FREIJY 347 01:38:42 59 533 12:23 69 596 04:57 60 557 53:20 11.2 m/hr 54 498 03:07 44 429 24:53 10:22 min/m
59 566 Kim GROSENBACHER 560 01:38:56 71 651 13:55 49 475 03:44 64 577 54:38 11.0 m/hr 9 143 01:45 43 427 24:52 10:21 min/m
60 572 Debbie RAU 316 01:39:16 77 682 15:21 44 424 03:25 32 243 42:30 14.1 m/hr 78 696 09:36 58 587 28:22 11:49 min/m
61 581 Jeannie WALKER 617 01:39:58 68 596 13:00 72 602 05:06 61 562 53:40 11.2 m/hr 53 486 03:03 48 446 25:07 10:28 min/m
62 589 Denise LEECH 185 01:40:34 52 455 11:45 43 414 03:22 57 516 50:56 11.8 m/hr 49 415 02:40 69 662 31:49 13:15 min/m
63 590 Melinda HENNE 251 01:40:37 48 436 11:36 54 492 03:53 59 542 52:26 11.4 m/hr 50 416 02:40 64 632 29:59 12:29 min/m
64 592 Kim RIOJAS 746 01:40:40 55 497 12:01 31 315 02:53 63 566 54:08 11.1 m/hr 39 347 02:25 61 610 29:10 12:09 min/m
65 607 Manal COLEMAN 628 01:42:24 50 442 11:40 62 543 04:19 71 635 59:48 10.0 m/hr 74 654 04:54 24 220 21:41 9:02 min/m
66 628 Sheri UNDERWOOD 238 01:44:52 31 321 10:57 33 332 02:58 70 628 59:09 10.1 m/hr 21 217 01:58 63 630 29:49 12:25 min/m
67 632 Denise SADDLER 852 01:45:43 49 439 11:39 55 499 03:56 74 647 01:01:42 9.7 m/hr 12 167 01:49 53 527 26:36 11:05 min/m
68 634 Becky HELTON 735 01:46:04 78 688 15:56 77 656 07:14 18 126 39:27 15.2 m/hr 65 573 03:37 79 709 39:49 16:35 min/m
69 638 Amy Sue MORA 439 01:46:14 61 563 12:38 65 557 04:27 65 584 55:04 10.9 m/hr 32 296 02:13 70 663 31:51 13:16 min/m
70 643 Erika SANCHEZ 222 01:47:23 39 357 11:12 46 468 03:42 73 645 01:01:21 9.8 m/hr 5 97 01:33 62 621 29:33 12:18 min/m
71 644 Belinda JONES 73 01:47:37 73 659 14:01 28 252 02:36 67 609 57:11 10.5 m/hr 24 240 02:02 68 660 31:44 13:13 min/m
72 645 Jill WALDROP 466 01:47:45 72 657 13:59 60 537 04:17 48 439 48:02 12.5 m/hr 66 575 03:38 78 705 37:48 15:45 min/m
73 656 Lily MONROE 437 01:48:55 74 664 14:13 61 539 04:18 72 636 59:48 10.0 m/hr 67 582 03:43 55 537 26:51 11:11 min/m
74 661 Libba SKARNULIS 229 01:49:37 66 589 12:55 76 649 06:46 69 627 59:05 10.2 m/hr 61 557 03:31 56 559 27:19 11:23 min/m
75 672 Sheryl DAVIS 392 01:51:46 76 670 14:33 75 631 05:49 66 597 55:41 10.8 m/hr 73 652 04:53 66 641 30:48 12:50 min/m
76 683 Lana HARRISON 689 01:55:22 57 518 12:14 66 568 04:32 68 613 57:56 10.4 m/hr 60 547 03:27 77 703 37:10 15:29 min/m
77 685 Jacqui WALLPE 900 01:55:35 64 579 12:46 67 570 04:34 76 663 01:03:44 9.4 m/hr 29 278 02:08 72 668 32:21 13:29 min/m
78 690 Caroline SIMPKINS 855 01:58:09 51 449 11:43 32 326 02:57 77 679 01:10:10 8.6 m/hr 51 421 02:41 65 638 30:37 12:45 min/m
79 694 Cara MADSEN 739 02:01:09 69 609 13:13 70 597 04:59 75 649 01:01:49 9.7 m/hr 77 695 09:14 71 664 31:51 13:16 min/m
Ages 50 - 54
1 41 Sandra COWART 388 01:09:20 11 283 10:46 4 100 01:52 1 17 34:47 17.2 m/hr 9 191 01:54 1 118 19:59 8:19 min/m
2 76 Annabel SPARKMAN 75 01:12:04 5 189 10:21 3 96 01:51 6 64 37:33 16.0 m/hr 15 243 02:02 3 132 20:15 8:26 min/m
3 82 Tracy DEMEL 45 01:12:46 28 464 11:49 8 146 02:06 4 46 36:44 16.3 m/hr 12 225 01:59 2 122 20:05 8:22 min/m
4 124 Sue PATTILLO 278 01:15:15 9 255 10:38 1 29 01:21 11 161 40:16 14.9 m/hr 1 62 01:21 10 210 21:36 9:00 min/m
5 125 Gail SPURGEON 93 01:15:21 29 465 11:49 16 280 02:45 3 39 36:30 16.4 m/hr 31 452 02:52 9 201 21:24 8:55 min/m
6 139 Sharon HOWELL 760 01:16:07 12 288 10:47 34 453 03:37 8 103 38:41 15.5 m/hr 19 306 02:15 7 160 20:46 8:39 min/m
7 142 Dana PITNEY 447 01:16:29 23 389 11:23 26 330 02:58 5 47 36:50 16.3 m/hr 34 467 02:56 11 265 22:20 9:18 min/m
8 164 Denise BROWN 130 01:17:51 10 263 10:40 20 317 02:54 18 223 42:09 14.2 m/hr 5 120 01:41 4 140 20:25 8:30 min/m
9 195 Elizabeth GOSSETT 817 01:19:37 2 108 09:58 13 229 02:28 16 201 41:39 14.4 m/hr 13 228 01:59 19 343 23:31 9:48 min/m
10 197 Karen JEFFRIES 176 01:19:43 4 176 10:18 31 416 03:23 14 185 40:58 14.6 m/hr 18 304 02:15 16 296 22:48 9:30 min/m
11 222 Melissa WHEELER 17 01:21:13 39 577 12:44 5 102 01:52 7 80 38:15 15.7 m/hr 6 129 01:43 35 529 26:37 11:05 min/m
12 223 Judith TAMAYO 94 01:21:16 46 625 13:25 12 221 02:26 10 160 40:16 14.9 m/hr 28 427 02:44 12 270 22:24 9:20 min/m
13 224 Maryann FIELD 402 01:21:16 18 366 11:15 15 275 02:42 13 181 40:56 14.7 m/hr 23 339 02:23 21 366 23:59 9:59 min/m
14 225 Laurie MOYER 836 01:21:19 3 149 10:09 14 256 02:38 35 387 46:29 12.9 m/hr 2 68 01:25 6 154 20:36 8:35 min/m
15 235 Kymn CARDOSA 134 01:21:42 14 307 10:53 6 123 01:59 17 216 41:59 14.3 m/hr 7 136 01:43 25 445 25:06 10:27 min/m
16 242 Cherole SLAGH 546 01:21:54 1 102 09:56 9 151 02:08 19 230 42:18 14.2 m/hr 4 98 01:35 29 485 25:56 10:48 min/m
17 252 Lori MCDONALD 644 01:22:37 21 377 11:20 21 319 02:55 20 253 42:45 14.0 m/hr 20 310 02:16 17 333 23:20 9:43 min/m
18 272 Kim OBSTA 540 01:23:21 6 190 10:21 10 182 02:17 27 322 44:11 13.6 m/hr 32 454 02:53 20 350 23:36 9:50 min/m
19 285 Donna ESCOBAR 47 01:23:41 55 690 16:49 19 310 02:52 2 37 36:20 16.5 m/hr 17 282 02:09 26 463 25:29 10:37 min/m
20 301 Sandra MCGOWAN 56 01:24:41 24 391 11:24 18 309 02:52 31 362 45:38 13.1 m/hr 11 223 01:59 14 293 22:46 9:29 min/m
21 315 Pat NOLAN 841 01:25:08 27 425 11:33 23 322 02:55 40 444 48:11 12.4 m/hr 3 89 01:31 8 172 20:55 8:43 min/m
22 335 Sharon NICHOL-JOST 198 01:26:18 15 308 10:54 27 350 03:03 23 290 43:38 13.7 m/hr 25 393 02:35 31 496 26:07 10:53 min/m
23 338 Cheryl COLLICOTT 658 01:26:30 31 494 12:00 50 608 05:14 9 134 39:36 15.2 m/hr 50 674 05:37 22 368 24:01 10:00 min/m
24 343 Megan DEMEL 393 01:26:43 20 375 11:18 17 283 02:45 30 360 45:35 13.2 m/hr 16 280 02:09 24 430 24:55 10:22 min/m
25 349 Donna ANDERSON 675 01:26:58 25 396 11:25 37 493 03:54 15 194 41:15 14.5 m/hr 29 430 02:44 38 564 27:37 11:30 min/m
26 378 Karen BRANIGAN 129 01:28:04 40 583 12:49 45 563 04:30 12 173 40:39 14.8 m/hr 42 614 04:06 30 486 25:58 10:49 min/m
27 385 Lynn CRUZ 44 01:28:14 45 624 13:24 29 382 03:15 26 318 44:08 13.6 m/hr 27 414 02:39 23 418 24:46 10:19 min/m
28 402 Cherise BELL 725 01:28:57 38 554 12:34 39 530 04:10 22 281 43:19 13.8 m/hr 35 480 03:02 28 481 25:51 10:46 min/m
29 407 Penny CURRY 284 01:29:04 22 387 11:23 22 321 02:55 33 377 46:13 13.0 m/hr 10 198 01:54 34 528 26:36 11:05 min/m
30 414 Anne WEINHEIMER 244 01:29:24 7 249 10:37 7 143 02:06 29 353 45:15 13.3 m/hr 24 384 02:33 43 604 28:52 12:01 min/m
31 417 Karen ROBINSON 266 01:29:30 16 327 10:59 24 325 02:56 32 369 45:50 13.1 m/hr 53 685 06:56 15 294 22:46 9:29 min/m
32 425 Anne WASHBURN 618 01:30:02 44 613 13:18 48 566 04:32 38 422 47:20 12.7 m/hr 45 626 04:18 5 148 20:31 8:33 min/m
33 426 Alicia SANTIAGO 609 01:30:03 35 544 12:28 28 362 03:07 25 309 44:00 13.6 m/hr 8 189 01:53 42 595 28:33 11:53 min/m
34 441 Lindy DOWDY 396 01:31:08 30 481 11:55 25 329 02:57 24 291 43:40 13.7 m/hr 54 686 06:57 27 472 25:37 10:40 min/m
35 464 Jeffri LONG 594 01:32:26 13 303 10:51 49 590 04:49 28 328 44:21 13.5 m/hr 46 631 04:24 39 575 28:01 11:40 min/m
36 467 Marci PIERSON 357 01:32:31 8 251 10:37 11 198 02:21 36 399 46:39 12.9 m/hr 36 504 03:10 45 625 29:42 12:22 min/m
37 474 Grace ARIANOUTSOS 121 01:32:58 37 553 12:33 44 555 04:24 21 265 42:55 14.0 m/hr 40 556 03:31 44 622 29:33 12:19 min/m
38 491 Gloria LEVARIO 488 01:34:05 19 370 11:17 40 532 04:12 37 408 46:57 12.8 m/hr 47 644 04:40 36 544 26:58 11:14 min/m
39 512 Marcia BISCHAK 376 01:35:05 17 360 11:13 35 455 03:37 39 428 47:35 12.6 m/hr 14 231 02:00 46 639 30:38 12:45 min/m
40 528 Carolyn BIEDENHARN 477 01:36:16 32 529 12:20 33 426 03:26 42 498 50:22 11.9 m/hr 30 442 02:47 37 558 27:18 11:22 min/m
41 551 Denise MCEWEN 532 01:38:18 52 678 14:57 2 36 01:23 43 529 51:27 11.7 m/hr 55 690 07:50 13 288 22:39 9:26 min/m
42 571 Sandy TOUCHTON 325 01:39:10 53 681 15:16 30 410 03:22 41 459 48:47 12.3 m/hr 38 538 03:21 40 586 28:22 11:49 min/m
43 573 Elizabeth HEDDEN 301 01:39:25 54 683 15:30 32 421 03:24 34 378 46:18 13.0 m/hr 52 677 05:42 41 591 28:29 11:52 min/m
44 579 Marigrace KUNATH 421 01:39:46 34 542 12:27 36 491 03:52 49 598 55:46 10.8 m/hr 43 616 04:09 18 341 23:30 9:47 min/m
45 596 Aida MALDONADO 101 01:41:03 42 593 12:58 38 507 04:02 45 567 54:14 11.1 m/hr 41 574 03:38 32 501 26:08 10:53 min/m
46 635 Christi NEESE 442 01:46:08 36 545 12:29 46 564 04:30 47 582 54:57 10.9 m/hr 21 321 02:18 51 665 31:51 13:16 min/m
47 639 Rhonda PICCOLO 774 01:46:23 43 608 13:11 41 534 04:12 44 548 52:58 11.3 m/hr 48 645 04:43 50 652 31:17 13:02 min/m
48 641 Laura LAND 592 01:47:11 41 590 12:56 51 617 05:26 53 637 59:55 10.0 m/hr 26 403 02:37 33 513 26:15 10:56 min/m
49 670 Alicie MOORE 7 01:51:34 33 541 12:27 42 548 04:20 52 616 58:07 10.3 m/hr 51 676 05:41 48 647 30:57 12:53 min/m
50 673 Marie DEGENNARO 272 01:52:06 47 626 13:26 43 553 04:24 46 572 54:21 11.0 m/hr 22 330 02:20 55 704 37:33 15:38 min/m
51 674 Liza BANKS 122 01:52:50 50 674 14:48 47 565 04:32 48 583 55:00 10.9 m/hr 33 456 02:53 54 692 35:36 14:50 min/m
52 684 Mary BUCHANAN 571 01:55:33 26 401 11:26 55 676 11:38 50 614 58:05 10.3 m/hr 39 544 03:25 47 645 30:57 12:53 min/m
53 689 Diana WHITELEY 558 01:57:57 48 653 13:56 53 648 06:32 51 615 58:07 10.3 m/hr 44 618 04:09 52 688 35:11 14:39 min/m
54 696 Teresa KUNATH 634 02:01:48 51 677 14:56               37 529 03:18 53 690 35:23 14:44 min/m
55 708 Bridgette OLIVA 769 02:13:45 49 671 14:34 54 651 07:02               49 648 31:05 12:57 min/m
56 713 Mindy RABINOWITZ 61 02:25:59 56 694 20:11 52 646 06:30 54 685 01:15:14 8.0 m/hr 49 656 04:57 56 707 39:04 16:16 min/m
Ages 55 - 59
1 268 Kris SORENSON-HYATT 358 01:23:14             2 190 41:07 14.6 m/hr 9 536 03:20 5 416 24:43 10:18 min/m
2 291 Barbara SMITH 322 01:23:59 8 568 12:39 7 449 03:34 1 121 39:15 15.3 m/hr 12 619 04:14 4 388 24:14 10:05 min/m
3 294 Lori BATCHELDER 373 01:24:08 3 376 11:19 6 401 03:21 8 314 44:05 13.6 m/hr 3 127 01:43 3 353 23:39 9:51 min/m
4 379 Kathryn MOYNAHAN 743 01:28:05 6 492 11:59 9 546 04:20 10 402 46:45 12.8 m/hr 1 95 01:33 2 335 23:26 9:45 min/m
5 403 Trisha FRANK 580 01:29:02 4 414 11:31               8 526 03:17 1 138 20:24 8:30 min/m
6 434 Nancy FLYNN 474 01:30:47 1 323 10:58 4 312 02:52 6 310 44:01 13.6 m/hr 2 116 01:39 13 651 31:15 13:01 min/m
7 466 Sheri PARKER 8 01:32:29 14 686 15:38 3 307 02:51 5 302 43:50 13.7 m/hr 7 496 03:07 9 545 27:00 11:15 min/m
8 473 Barbara WELCH 557 01:32:56 7 535 12:24 11 581 04:41 4 300 43:47 13.7 m/hr 13 651 04:50 10 554 27:12 11:20 min/m
9 475 Gloria GOWAN 158 01:33:01 11 644 13:46 2 265 02:40 3 264 42:55 14.0 m/hr 10 581 03:42 12 631 29:57 12:28 min/m
10 508 Suellen ADAMS 491 01:34:49 10 619 13:21 1 106 01:54 11 455 48:28 12.4 m/hr 4 316 02:18 11 602 28:45 11:59 min/m
11 509 Mary OSBORNE 699 01:34:49 2 353 11:10 8 484 03:49 13 530 51:29 11.7 m/hr 6 437 02:46 7 470 25:33 10:38 min/m
12 556 Lila OWENS 771 01:38:31 5 474 11:52 13 643 06:22 12 526 51:18 11.7 m/hr 5 426 02:43 8 511 26:14 10:56 min/m
13 585 Nancy KLINKMAN 662 01:40:23 9 600 13:02 12 629 05:45 9 381 46:22 12.9 m/hr 15 697 09:46 6 461 25:26 10:35 min/m
14 610 Donna MORGAN 537 01:42:50 12 666 14:25 5 355 03:05 7 312 44:03 13.6 m/hr 14 679 06:28 14 685 34:47 14:29 min/m
15 710 Rebecca MARTIN 597 02:15:50 13 680 15:11 10 559 04:28 14 684 01:13:23 8.2 m/hr 11 608 04:02 15 706 38:44 16:08 min/m
Ages 60 - 64
1 178 Judy JONAS 349 01:18:26 1 196 10:23 2 93 01:49 1 137 39:39 15.1 m/hr 1 106 01:37 3 432 24:57 10:23 min/m
2 258 Irene DAUPHIN 506 01:22:45 2 252 10:37 4 359 03:06 3 285 43:28 13.8 m/hr 2 267 02:06 1 336 23:26 9:46 min/m
3 296 Babs BARHAM 370 01:24:23 7 531 12:21 3 232 02:29 2 234 42:21 14.2 m/hr 4 328 02:19 2 425 24:51 10:21 min/m
4 404 Helen MCGINTY 766 01:29:02 3 345 11:07 7 464 03:41 5 393 46:32 12.9 m/hr 5 333 02:22 4 452 25:18 10:32 min/m
5 461 Jane GAY 252 01:32:18 4 444 11:41 5 378 03:13 4 317 44:07 13.6 m/hr 7 597 03:55 7 617 29:21 12:14 min/m
6 519 Nancy MCGOWAN 695 01:35:48 6 500 12:04 6 441 03:32 7 492 50:00 12.0 m/hr 8 610 04:03 5 499 26:08 10:53 min/m
7 577 Vicki WRIGHT 870 01:39:36 5 447 11:42 8 523 04:07 8 573 54:23 11.0 m/hr 3 327 02:19 6 547 27:03 11:16 min/m
8 606 Marilyn CROACH 78 01:42:22 8 638 13:39 1 92 01:49 6 410 47:02 12.8 m/hr 6 517 03:14 8 700 36:36 15:15 min/m
Ages 65 - 69
1 488 Ruth WINNITOY 360 01:33:56 1 285 10:46 1 609 05:15 1 495 50:06 12.0 m/hr 1 551 03:28 1 395 24:19 10:08 min/m
MIssing Info
1 2 UNKNOWN 910 51:59 7 139 10:06 22 668 08:01               18 498 26:08 10:53 min/m
2 33 UNKNOWN 923 01:08:36 3 38 09:15 1 8 01:03 4 95 38:28 15.6 m/hr 2 5 00:53 3 61 18:55 7:53 min/m
3 35 UNKNOWN 917 01:08:36 4 60 09:31 4 20 01:17 5 154 40:03 15.0 m/hr 1 2 00:40 1 13 17:04 7:06 min/m
4 66 UNKNOWN 926 01:11:41 14 268 10:41 6 28 01:19 1 10 33:54 17.7 m/hr 9 41 01:14 15 410 24:31 10:13 min/m
5 93 UNKNOWN 901 01:13:16 1 9 08:41 9 66 01:39 2 45 36:40 16.4 m/hr 15 193 01:54 14 398 24:20 10:08 min/m
6 101 UNKNOWN 909 01:13:30 10 221 10:30 7 31 01:21 7 207 41:46 14.4 m/hr 10 43 01:14 2 49 18:37 7:45 min/m
7 170 UNKNOWN 922 01:18:02 2 14 08:51 2 13 01:10 14 432 47:48 12.5 m/hr 3 7 00:56 7 81 19:16 8:01 min/m
8 175 Shanali JACOB 905 01:18:15 5 113 10:00 21 545 04:19 6 193 41:15 14.5 m/hr 24 564 03:33 5 72 19:06 7:57 min/m
9 184 UNKNOWN 927 01:18:53 18 483 11:55 5 25 01:19 10 293 43:41 13.7 m/hr 7 24 01:05 9 169 20:51 8:41 min/m
10 205 UNKNOWN 915 01:20:08 13 254 10:38 11 99 01:52 3 56 37:09 16.1 m/hr 8 27 01:08 24 615 29:20 12:13 min/m
11 254 UNKNOWN 913 01:22:37 8 193 10:22 15 171 02:14 12 417 47:08 12.7 m/hr 13 82 01:29 11 197 21:23 8:54 min/m
12 307 UNKNOWN 566 01:24:51 11 237 10:34 12 108 01:54 20 523 51:13 11.7 m/hr 17 208 01:56 6 78 19:12 8:00 min/m
13 330 UNKNOWN 921 01:26:05 2 382 11:20 2 41 01:25 2 536 52:13 11.5 m/hr 2 50 01:16 1 107 19:48 8:15 min/m
14 342 UNKNOWN 906 01:26:42 9 204 10:25 20 400 03:20 8 237 42:21 14.2 m/hr 25 633 04:24 19 504 26:10 10:54 min/m
15 374 UNKNOWN 904 01:27:57 6 134 10:06 3 17 01:16 23 580 54:42 11.0 m/hr 6 21 01:05 8 163 20:47 8:39 min/m
16 382 UNKNOWN 903 01:28:10 20 581 12:47 18 285 02:45 9 262 42:54 14.0 m/hr 20 260 02:05 22 566 27:38 11:31 min/m
17 384 UNKNOWN 916 01:28:12             21 554 53:18 11.3 m/hr 22 326 02:19 4 69 19:02 7:56 min/m
18 387 UNKNOWN 914 01:28:16 21 604 13:06 13 112 01:55 15 457 48:36 12.3 m/hr 5 17 01:04 13 346 23:33 9:48 min/m
19 432 UNKNOWN 928 01:30:36 17 473 11:51 17 240 02:31 19 522 51:13 11.7 m/hr 16 196 01:54 12 315 23:06 9:37 min/m
20 446 UNKNOWN 911 01:31:29             17 480 49:26 12.1 m/hr 23 365 02:28 10 189 21:14 8:50 min/m
21 470 UNKNOWN 919 01:32:34 16 467 11:49 16 224 02:26 18 494 50:04 12.0 m/hr 19 233 02:00 21 510 26:13 10:55 min/m
22 496 UNKNOWN 912 01:34:22             16 465 48:56 12.3 m/hr 12 76 01:28 23 590 28:26 11:51 min/m
23 541 UNKNOWN 940 01:37:29 12 241 10:35 10 91 01:49 25 621 58:29 10.3 m/hr 4 15 01:03 16 467 25:31 10:38 min/m
24 546 UNKNOWN 924 01:37:37 22 656 13:58 8 48 01:29 22 576 54:35 11.0 m/hr 11 65 01:22 20 507 26:11 10:54 min/m
25 574 UNKNOWN 684 01:39:30             11 342 44:54 13.4 m/hr 21 320 02:18 26 677 33:36 14:00 min/m
26 598 UNKNOWN 446 01:41:38 15 413 11:31 19 348 03:02 24 595 55:40 10.8 m/hr 18 226 01:59 25 618 29:24 12:15 min/m
27 620 UNKNOWN 907 01:43:43 19 496 12:01 14 135 02:03 26 651 01:01:55 9.7 m/hr 14 132 01:43 17 490 25:59 10:49 min/m
28 631 UNKNOWN 772 01:45:36             13 427 47:28 12.6 m/hr 26 673 05:32 27 697 36:20 15:08 min/m
2 Person Relay
1 1 JONES/CROSBY 1213 51:59 3 138 10:06 11 667 08:01               10 497 26:08 10:53 min/m
2 92 A MOTHER'S DAY GIFT 1201 01:13:16 1 8 08:41 3 65 01:39 1 44 36:40 16.4 m/hr 9 192 01:54 7 397 24:20 10:08 min/m
3 100 GO MOM 1212 01:13:30 6 220 10:30 2 30 01:21 3 206 41:46 14.4 m/hr 5 42 01:14 1 48 18:37 7:45 min/m
4 204 RA-DOG AND PANDA 1218 01:20:08 8 253 10:38 5 98 01:52 2 55 37:09 16.1 m/hr 4 26 01:08 14 614 29:20 12:13 min/m
5 253 NELSON/GRANT 1216 01:22:37 4 192 10:22 8 170 02:14 6 416 47:08 12.7 m/hr 7 81 01:29 5 196 21:23 8:54 min/m
6 341 DOUBLE D'S 1208 01:26:42 5 203 10:25 10 399 03:20 4 236 42:21 14.2 m/hr 13 632 04:24 11 503 26:10 10:54 min/m
7 373 CRAAAAAZY MAMAS! 1205 01:27:57 2 133 10:06 1 16 01:16 11 579 54:42 11.0 m/hr 3 20 01:05 3 162 20:47 8:39 min/m
8 381 CHARLIE'S ANGELS 1204 01:28:10 10 580 12:47 9 284 02:45 5 261 42:54 14.0 m/hr 10 259 02:05 12 565 27:38 11:31 min/m
9 383 WINE-ING MAMAS! 1219 01:28:12             10 553 53:18 11.3 m/hr 11 325 02:19 2 68 19:02 7:56 min/m
10 386 QTS 1217 01:28:16 11 603 13:06 6 111 01:55 7 456 48:36 12.3 m/hr 2 16 01:04 6 345 23:33 9:48 min/m
11 445 LATINALITE 1214 01:31:29             9 479 49:26 12.1 m/hr 12 364 02:28 4 188 21:14 8:50 min/m
12 495 MAG/BEC 1215 01:34:22             8 464 48:56 12.3 m/hr 6 75 01:28 13 589 28:26 11:51 min/m
13 540 2FRIENDS2TRI 1200 01:37:29 7 240 10:35 4 90 01:49 12 620 58:29 10.3 m/hr 1 14 01:03 8 466 25:31 10:38 min/m
14 619 DR. HOES 1210 01:43:43 9 495 12:01 7 134 02:03 13 650 01:01:55 9.7 m/hr 8 131 01:43 9 489 25:59 10:49 min/m
3 Person Relay
1 32 SCHNEIDER 1306 01:08:36 2 37 09:15 1 7 01:03 2 94 38:28 15.6 m/hr 2 4 00:53 2 60 18:55 7:53 min/m
2 34 3 LADY WARRIORS 1300 01:08:36 3 59 09:31 3 19 01:17 3 153 40:03 15.0 m/hr 1 1 00:40 1 12 17:04 7:06 min/m
3 65 TRE AMIGOS TRIING 1309 01:11:41 4 267 10:41 5 27 01:19 1 9 33:54 17.7 m/hr 5 40 01:14 7 409 24:31 10:13 min/m
4 169 S, S & W HAVING FUN! 1305 01:18:02 1 13 08:51 2 12 01:10 5 431 47:48 12.5 m/hr 3 6 00:56 3 80 19:16 8:01 min/m
5 183 TRI FORCE 1310 01:18:53 8 482 11:55 4 24 01:19 4 292 43:41 13.7 m/hr 4 23 01:05 5 168 20:51 8:41 min/m
6 329 JONES 1304 01:26:05 5 381 11:20 6 40 01:25 8 535 52:13 11.5 m/hr 6 49 01:16 4 106 19:48 8:15 min/m
7 431 WOMEN WHO WINE 1311 01:30:36 7 472 11:51 9 239 02:31 7 521 51:13 11.7 m/hr 8 195 01:54 6 314 23:06 9:37 min/m
8 469 HIGHLAND GALS 1302 01:32:34 6 466 11:49 8 223 02:26 6 493 50:04 12.0 m/hr 9 232 02:00 9 509 26:13 10:55 min/m
9 545 THE GOLDEN GIRLS 1307 01:37:37 9 655 13:58 7 47 01:29 9 575 54:35 11.0 m/hr 7 64 01:22 8 506 26:11 10:54 min/m
Chip Timing by RRPTiming.com!

 

[ Tri ] [ Unofficial Tri ]

<
2013 Spa Girl Triathlon Results
Unofficial Short Tri
Participants in these results had unrealistic times that were possibly caused by inadvertently shorting the course or missing a loop on the run/bike course.
Overall Swim T1 Bike
(10m)
T1 Run
(2m)
AG
Pos
Overall
Pos
Name Race No Finish
Time
AG
Pos
Overall
Pos
Time AG
Pos
Overall
Pos
Time AG
Pos
Overall
Pos
Time AG
Pos
Overall
Pos
Time AG
Pos
Overall
Pos
Time
Overall
1 1 Faith AGUIRRE 117 53:15.00 2 7 09:36.00 2 11 02:11.00 1 1 19:45.00 1 5 01:15.00 2 35 20:30.00
2 2 Deborah SILVA 228 57:27.00 1 3 09:02.00 1 8 01:58.00 2 7 24:54.00 2 6 01:22.00 1 34 20:13.00
Masters
1 7 Monica D COKER 711 01:01:10.00 1 13 10:12.00 1 31 03:37.00 1 5 23:25.00 1 12 01:45.00 1 40 22:14.00
Ages 19 and Under
1 13 Cassidy BENNETT 788 01:10:24.00 1 1 08:33.00 2 10 02:09.00 2 35 48:28.00 2 7 01:29.00 3 5 09:48.00
2 21 Landa DOWDY 395 01:15:16.00 4 14 10:19.00 1 5 01:46.00 1 30 44:55.00 6 40 03:03.00 5 21 15:16.00
3 30 Hannah PADILLA 311 01:19:25.00 2 8 09:49.00 4 35 04:03.00 4 46 56:40.00 5 34 02:50.00 1 2 06:07.00
4 31 Shelby FERNALD 299 01:19:34.00 3 9 09:57.00 3 34 04:03.00 5 47 56:50.00 3 26 02:38.00 2 3 06:08.00
5 37 Kathryn OLSON 698 01:23:16.00 5 28 11:19.00 5 38 04:46.00 3 45 55:33.00 1 4 01:04.00 4 9 10:36.00
6 53 Helena LEWIS 663 01:58:30.00 6 53 16:58.00 6 47 08:01.00 6 53 01:15:29.00 4 31 02:44.00 6 22 15:20.00
Ages 25 - 29
1